Wetterdaten: Donnerstag, 01.08.2019
Datum Zeit Temp. Aussen Temp. o. S. +5cm Feuchte Auss Luftdruck Regen Sonnenschein Regendauer Solar Windben Empfang
01.08.2019 00:00 18,6 C 17,2 C 17,2 C 70 % 1017,6 hPa 0,0 l/m 0 min 0 min 0 W/m 6,4 km/h (2 Bft) 95,65 %
01.08.2019 00:02 18,6 C 17,2 C 17,2 C 70 % 1017,6 hPa 0,0 l/m 0 min 0 min 0 W/m 9,7 km/h (2 Bft) 93,18 %
01.08.2019 00:04 18,6 C 17,2 C 17,2 C 70 % 1017,5 hPa 0,0 l/m 0 min 0 min 0 W/m 6,4 km/h (2 Bft) 95,74 %
01.08.2019 00:08 18,5 C 17,2 C 17,2 C 70 % 1017,5 hPa 0,0 l/m 0 min 0 min 0 W/m 12,9 km/h (3 Bft) 93,62 %
01.08.2019 00:10 18,5 C 17,2 C 17,2 C 70 % 1017,5 hPa 0,0 l/m 0 min 0 min 0 W/m 6,4 km/h (2 Bft) 97,87 %
01.08.2019 00:12 18,4 C 17,2 C 17,2 C 71 % 1017,5 hPa 0,0 l/m 0 min 0 min 0 W/m 6,4 km/h (2 Bft) 95,65 %
01.08.2019 00:14 18,4 C 17,2 C 17,2 C 71 % 1017,5 hPa 0,0 l/m 0 min 0 min 0 W/m 6,4 km/h (2 Bft) 97,87 %
01.08.2019 00:16 18,4 C 16,7 C 17,2 C 71 % 1017,5 hPa 0,0 l/m 0 min 0 min 0 W/m 9,7 km/h (2 Bft) 93,62 %
01.08.2019 00:18 18,4 C 16,7 C 16,7 C 71 % 1017,5 hPa 0,0 l/m 0 min 0 min 0 W/m 6,4 km/h (2 Bft) 95,74 %
01.08.2019 00:20 18,4 C 16,7 C 16,7 C 71 % 1017,5 hPa 0,0 l/m 0 min 0 min 0 W/m 9,7 km/h (2 Bft) 95,74 %
01.08.2019 00:22 18,3 C 17,2 C 17,2 C 71 % 1017,6 hPa 0,0 l/m 0 min 0 min 0 W/m 9,7 km/h (2 Bft) 95,65 %
01.08.2019 00:24 18,3 C 17,2 C 17,2 C 71 % 1017,5 hPa 0,0 l/m 0 min 0 min 0 W/m 6,4 km/h (2 Bft) 95,74 %
01.08.2019 00:26 18,3 C 17,2 C 17,2 C 71 % 1017,5 hPa 0,0 l/m 0 min 0 min 0 W/m 6,4 km/h (2 Bft) 97,87 %
01.08.2019 00:28 18,3 C 17,2 C 17,2 C 71 % 1017,5 hPa 0,0 l/m 0 min 0 min 0 W/m 6,4 km/h (2 Bft) 93,62 %
01.08.2019 00:30 18,2 C 17,2 C 17,2 C 72 % 1017,5 hPa 0,0 l/m 0 min 0 min 0 W/m 9,7 km/h (2 Bft) 100,00 %
01.08.2019 00:32 18,2 C 16,7 C 17,2 C 72 % 1017,5 hPa 0,0 l/m 0 min 0 min 0 W/m 9,7 km/h (2 Bft) 97,87 %
01.08.2019 00:34 18,2 C 16,7 C 17,2 C 72 % 1017,5 hPa 0,0 l/m 0 min 0 min 0 W/m 6,4 km/h (2 Bft) 97,83 %
01.08.2019 00:36 18,2 C 16,7 C 16,7 C 72 % 1017,5 hPa 0,0 l/m 0 min 0 min 0 W/m 16,1 km/h (3 Bft) 97,87 %
01.08.2019 00:38 18,2 C 16,7 C 16,7 C 72 % 1017,5 hPa 0,0 l/m 0 min 0 min 0 W/m 9,7 km/h (2 Bft) 97,87 %
01.08.2019 00:40 18,1 C 16,7 C 16,7 C 72 % 1017,5 hPa 0,0 l/m 0 min 0 min 0 W/m 6,4 km/h (2 Bft) 97,87 %
01.08.2019 00:42 18,1 C 16,7 C 16,7 C 72 % 1017,5 hPa 0,0 l/m 0 min 0 min 0 W/m 6,4 km/h (2 Bft) 97,87 %
01.08.2019 00:44 18,1 C 16,7 C 16,7 C 72 % 1017,5 hPa 0,0 l/m 0 min 0 min 0 W/m 6,4 km/h (2 Bft) 95,74 %
01.08.2019 00:46 18,1 C 16,7 C 16,7 C 72 % 1017,5 hPa 0,0 l/m 0 min 0 min 0 W/m 6,4 km/h (2 Bft) 97,83 %
01.08.2019 00:48 18,1 C 16,7 C 16,7 C 72 % 1017,5 hPa 0,0 l/m 0 min 0 min 0 W/m 3,2 km/h (1 Bft) 97,87 %
01.08.2019 00:50 18,1 C 16,7 C 16,7 C 72 % 1017,5 hPa 0,0 l/m 0 min 0 min 0 W/m 6,4 km/h (2 Bft) 97,87 %
01.08.2019 00:52 18,0 C 16,7 C 16,7 C 72 % 1017,5 hPa 0,0 l/m 0 min 0 min 0 W/m 6,4 km/h (2 Bft) 97,87 %
01.08.2019 00:54 18,0 C 16,7 C 16,7 C 72 % 1017,5 hPa 0,0 l/m 0 min 0 min 0 W/m 3,2 km/h (1 Bft) 97,87 %
01.08.2019 00:56 18,0 C 16,7 C 16,7 C 72 % 1017,6 hPa 0,0 l/m 0 min 0 min 0 W/m 9,7 km/h (2 Bft) 97,87 %
01.08.2019 00:58 17,9 C 16,7 C 16,7 C 73 % 1017,6 hPa 0,0 l/m 0 min 0 min 0 W/m 9,7 km/h (2 Bft) 97,37 %
01.08.2019 01:00 17,9 C 16,7 C 16,7 C 73 % 1017,6 hPa 0,0 l/m 0 min 0 min 0 W/m 6,4 km/h (2 Bft) 97,87 %
01.08.2019 01:02 17,9 C 16,7 C 16,1 C 73 % 1017,6 hPa 0,0 l/m 0 min 0 min 0 W/m 6,4 km/h (2 Bft) 95,74 %
01.08.2019 01:04 17,9 C 16,1 C 16,1 C 73 % 1017,6 hPa 0,0 l/m 0 min 0 min 0 W/m 9,7 km/h (2 Bft) 97,87 %
01.08.2019 01:06 17,8 C 16,1 C 16,1 C 73 % 1017,6 hPa 0,0 l/m 0 min 0 min 0 W/m 6,4 km/h (2 Bft) 97,87 %
01.08.2019 01:08 17,8 C 16,1 C 16,1 C 73 % 1017,7 hPa 0,0 l/m 0 min 0 min 0 W/m 3,2 km/h (1 Bft) 97,83 %
01.08.2019 01:10 17,8 C 16,1 C 16,1 C 73 % 1017,7 hPa 0,0 l/m 0 min 0 min 0 W/m 9,7 km/h (2 Bft) 97,87 %
01.08.2019 01:12 17,8 C 16,1 C 16,1 C 73 % 1017,7 hPa 0,0 l/m 0 min 0 min 0 W/m 6,4 km/h (2 Bft) 97,87 %
01.08.2019 01:14 17,7 C 16,1 C 16,1 C 74 % 1017,7 hPa 0,0 l/m 0 min 0 min 0 W/m 6,4 km/h (2 Bft) 97,87 %
01.08.2019 01:16 17,7 C 16,1 C 16,1 C 73 % 1017,6 hPa 0,0 l/m 0 min 0 min 0 W/m 3,2 km/h (1 Bft) 97,87 %
01.08.2019 01:18 17,7 C 16,1 C 16,1 C 73 % 1017,7 hPa 0,0 l/m 0 min 0 min 0 W/m 3,2 km/h (1 Bft) 96,36 %
01.08.2019 01:20 17,7 C 16,1 C 16,1 C 73 % 1017,7 hPa 0,0 l/m 0 min 0 min 0 W/m 0,0 km/h (0 Bft) 100,00 %
01.08.2019 01:22 17,7 C 16,1 C 16,1 C 74 % 1017,7 hPa 0,0 l/m 0 min 0 min 0 W/m 0,0 km/h (0 Bft) 97,87 %
01.08.2019 01:24 17,6 C 16,1 C 15,6 C 74 % 1017,6 hPa 0,0 l/m 0 min 0 min 0 W/m 0,0 km/h (0 Bft) 100,00 %
01.08.2019 01:26 17,6 C 16,1 C 15,6 C 74 % 1017,6 hPa 0,0 l/m 0 min 0 min 0 W/m 6,4 km/h (2 Bft) 100,00 %
01.08.2019 01:28 17,6 C 15,6 C 15,6 C 74 % 1017,7 hPa 0,0 l/m 0 min 0 min 0 W/m 6,4 km/h (2 Bft) 97,87 %
01.08.2019 01:30 17,5 C 15,6 C 15,6 C 74 % 1017,7 hPa 0,0 l/m 0 min 0 min 0 W/m 6,4 km/h (2 Bft) 100,00 %
01.08.2019 01:32 17,5 C 15,6 C 15,6 C 75 % 1017,6 hPa 0,0 l/m 0 min 0 min 0 W/m 6,4 km/h (2 Bft) 100,00 %
01.08.2019 01:34 17,4 C 15,6 C 15,6 C 75 % 1017,7 hPa 0,0 l/m 0 min 0 min 0 W/m 3,2 km/h (1 Bft) 97,87 %
01.08.2019 01:36 17,4 C 15,6 C 15,6 C 75 % 1017,7 hPa 0,0 l/m 0 min 0 min 0 W/m 0,0 km/h (0 Bft) 97,87 %
01.08.2019 01:38 17,4 C 15,6 C 15,6 C 75 % 1017,7 hPa 0,0 l/m 0 min 0 min 0 W/m 3,2 km/h (1 Bft) 100,00 %
01.08.2019 01:40 17,3 C 15,6 C 15,6 C 75 % 1017,7 hPa 0,0 l/m 0 min 0 min 0 W/m 0,0 km/h (0 Bft) 100,00 %
01.08.2019 01:42 17,3 C 15,6 C 15,0 C 75 % 1017,7 hPa 0,0 l/m 0 min 0 min 0 W/m 0,0 km/h (0 Bft) 100,00 %
01.08.2019 01:44 17,3 C 15,6 C 15,0 C 76 % 1017,7 hPa 0,0 l/m 0 min 0 min 0 W/m 6,4 km/h (2 Bft) 100,00 %
01.08.2019 01:46 17,2 C 15,0 C 15,0 C 76 % 1017,7 hPa 0,0 l/m 0 min 0 min 0 W/m 0,0 km/h (0 Bft) 100,00 %
01.08.2019 01:48 17,2 C 15,6 C 15,0 C 76 % 1017,7 hPa 0,0 l/m 0 min 0 min 0 W/m 6,4 km/h (2 Bft) 100,00 %
01.08.2019 01:50 17,2 C 15,0 C 15,0 C 76 % 1017,6 hPa 0,0 l/m 0 min 0 min 0 W/m 0,0 km/h (0 Bft) 100,00 %
01.08.2019 01:52 17,1 C 15,6 C 15,0 C 76 % 1017,7 hPa 0,0 l/m 0 min 0 min 0 W/m 6,4 km/h (2 Bft) 100,00 %
01.08.2019 01:54 17,1 C 15,0 C 15,0 C 76 % 1017,7 hPa 0,0 l/m 0 min 0 min 0 W/m 3,2 km/h (1 Bft) 97,87 %
01.08.2019 01:56 17,1 C 15,0 C 15,0 C 77 % 1017,7 hPa 0,0 l/m 0 min 0 min 0 W/m 6,4 km/h (2 Bft) 100,00 %
01.08.2019 01:58 17,0 C 15,0 C 15,0 C 77 % 1017,7 hPa 0,0 l/m 0 min 0 min 0 W/m 3,2 km/h (1 Bft) 100,00 %
01.08.2019 02:00 16,9 C 15,0 C 15,0 C 77 % 1017,6 hPa 0,0 l/m 0 min 0 min 0 W/m 3,2 km/h (1 Bft) 100,00 %
01.08.2019 02:02 16,9 C 15,0 C 15,0 C 77 % 1017,6 hPa 0,0 l/m 0 min 0 min 0 W/m 6,4 km/h (2 Bft) 100,00 %
01.08.2019 02:04 16,8 C 15,0 C 15,0 C 77 % 1017,6 hPa 0,0 l/m 0 min 0 min 0 W/m 6,4 km/h (2 Bft) 100,00 %
01.08.2019 02:06 16,8 C 15,0 C 15,0 C 77 % 1017,6 hPa 0,0 l/m 0 min 0 min 0 W/m 6,4 km/h (2 Bft) 97,87 %
01.08.2019 02:08 16,8 C 15,0 C 15,0 C 78 % 1017,6 hPa 0,0 l/m 0 min 0 min 0 W/m 6,4 km/h (2 Bft) 100,00 %
01.08.2019 02:10 16,7 C 15,0 C 15,0 C 78 % 1017,6 hPa 0,0 l/m 0 min 0 min 0 W/m 3,2 km/h (1 Bft) 100,00 %
01.08.2019 02:12 16,7 C 15,0 C 15,0 C 78 % 1017,6 hPa 0,0 l/m 0 min 0 min 0 W/m 3,2 km/h (1 Bft) 97,87 %
01.08.2019 02:14 16,7 C 15,0 C 15,0 C 78 % 1017,6 hPa 0,0 l/m 0 min 0 min 0 W/m 3,2 km/h (1 Bft) 100,00 %
01.08.2019 02:16 16,6 C 15,0 C 15,0 C 78 % 1017,6 hPa 0,0 l/m 0 min 0 min 0 W/m 0,0 km/h (0 Bft) 100,00 %
01.08.2019 02:18 16,6 C 15,0 C 15,0 C 78 % 1017,6 hPa 0,0 l/m 0 min 0 min 0 W/m 6,4 km/h (2 Bft) 100,00 %
01.08.2019 02:20 16,6 C 15,0 C 15,0 C 78 % 1017,5 hPa 0,0 l/m 0 min 0 min 0 W/m 6,4 km/h (2 Bft) 97,87 %
01.08.2019 02:22 16,5 C 15,0 C 15,0 C 78 % 1017,5 hPa 0,0 l/m 0 min 0 min 0 W/m 6,4 km/h (2 Bft) 100,00 %
01.08.2019 02:24 16,5 C 15,0 C 15,0 C 78 % 1017,5 hPa 0,0 l/m 0 min 0 min 0 W/m 0,0 km/h (0 Bft) 100,00 %
01.08.2019 02:26 16,4 C 15,0 C 15,0 C 78 % 1017,5 hPa 0,0 l/m 0 min 0 min 0 W/m 9,7 km/h (2 Bft) 100,00 %
01.08.2019 02:28 16,4 C 15,0 C 15,0 C 79 % 1017,6 hPa 0,0 l/m 0 min 0 min 0 W/m 3,2 km/h (1 Bft) 100,00 %
01.08.2019 02:30 16,4 C 15,0 C 15,0 C 79 % 1017,6 hPa 0,0 l/m 0 min 0 min 0 W/m 3,2 km/h (1 Bft) 100,00 %
01.08.2019 02:32 16,4 C 15,0 C 15,0 C 79 % 1017,6 hPa 0,0 l/m 0 min 0 min 0 W/m 6,4 km/h (2 Bft) 97,87 %
01.08.2019 02:34 16,3 C 15,0 C 15,0 C 79 % 1017,6 hPa 0,0 l/m 0 min 0 min 0 W/m 0,0 km/h (0 Bft) 98,18 %
01.08.2019 02:36 16,3 C 15,0 C 15,0 C 79 % 1017,5 hPa 0,0 l/m 0 min 0 min 0 W/m 6,4 km/h (2 Bft) 97,87 %
01.08.2019 02:38 16,3 C 15,0 C 15,0 C 79 % 1017,5 hPa 0,0 l/m 0 min 0 min 0 W/m 6,4 km/h (2 Bft) 95,74 %
01.08.2019 02:40 16,3 C 15,0 C 15,0 C 79 % 1017,5 hPa 0,0 l/m 0 min 0 min 0 W/m 6,4 km/h (2 Bft) 100,00 %
01.08.2019 02:42 16,3 C 15,0 C 15,0 C 79 % 1017,5 hPa 0,0 l/m 0 min 0 min 0 W/m 6,4 km/h (2 Bft) 95,74 %
01.08.2019 02:44 16,2 C 15,0 C 15,0 C 79 % 1017,5 hPa 0,0 l/m 0 min 0 min 0 W/m 0,0 km/h (0 Bft) 97,87 %
01.08.2019 02:46 16,2 C 15,0 C 15,0 C 79 % 1017,5 hPa 0,0 l/m 0 min 0 min 0 W/m 3,2 km/h (1 Bft) 97,83 %
01.08.2019 02:48 16,2 C 15,0 C 15,0 C 80 % 1017,6 hPa 0,0 l/m 0 min 0 min 0 W/m 0,0 km/h (0 Bft) 97,87 %
01.08.2019 02:50 16,2 C 14,4 C 14,4 C 80 % 1017,6 hPa 0,0 l/m 0 min 0 min 0 W/m 0,0 km/h (0 Bft) 95,74 %
01.08.2019 02:52 16,2 C 15,0 C 14,4 C 80 % 1017,5 hPa 0,0 l/m 0 min 0 min 0 W/m 3,2 km/h (1 Bft) 97,87 %
01.08.2019 02:54 16,1 C 14,4 C 14,4 C 80 % 1017,5 hPa 0,0 l/m 0 min 0 min 0 W/m 0,0 km/h (0 Bft) 97,87 %
01.08.2019 02:56 16,1 C 14,4 C 14,4 C 80 % 1017,5 hPa 0,0 l/m 0 min 0 min 0 W/m 3,2 km/h (1 Bft) 97,87 %
01.08.2019 02:58 16,1 C 14,4 C 14,4 C 80 % 1017,5 hPa 0,0 l/m 0 min 0 min 0 W/m 3,2 km/h (1 Bft) 95,65 %
01.08.2019 03:00 16,1 C 14,4 C 14,4 C 80 % 1017,5 hPa 0,0 l/m 0 min 0 min 0 W/m 6,4 km/h (2 Bft) 95,74 %
01.08.2019 03:02 16,1 C 14,4 C 14,4 C 80 % 1017,5 hPa 0,0 l/m 0 min 0 min 0 W/m 3,2 km/h (1 Bft) 93,62 %
01.08.2019 03:04 16,0 C 14,4 C 14,4 C 80 % 1017,5 hPa 0,0 l/m 0 min 0 min 0 W/m 0,0 km/h (0 Bft) 93,62 %
01.08.2019 03:06 16,0 C 14,4 C 14,4 C 80 % 1017,5 hPa 0,0 l/m 0 min 0 min 0 W/m 3,2 km/h (1 Bft) 95,74 %
01.08.2019 03:08 15,9 C 14,4 C 14,4 C 80 % 1017,5 hPa 0,0 l/m 0 min 0 min 0 W/m 3,2 km/h (1 Bft) 95,74 %
01.08.2019 03:10 15,9 C 14,4 C 14,4 C 81 % 1017,5 hPa 0,0 l/m 0 min 0 min 0 W/m 0,0 km/h (0 Bft) 96,36 %
01.08.2019 03:12 15,9 C 14,4 C 14,4 C 81 % 1017,5 hPa 0,0 l/m 0 min 0 min 0 W/m 0,0 km/h (0 Bft) 91,49 %
01.08.2019 03:14 15,9 C 14,4 C 14,4 C 81 % 1017,5 hPa 0,0 l/m 0 min 0 min 0 W/m 3,2 km/h (1 Bft) 93,62 %
01.08.2019 03:16 15,9 C 14,4 C 14,4 C 81 % 1017,4 hPa 0,0 l/m 0 min 0 min 0 W/m 3,2 km/h (1 Bft) 93,62 %
01.08.2019 03:18 15,8 C 14,4 C 14,4 C 81 % 1017,5 hPa 0,0 l/m 0 min 0 min 0 W/m 6,4 km/h (2 Bft) 93,48 %
01.08.2019 03:20 15,8 C 14,4 C 14,4 C 81 % 1017,4 hPa 0,0 l/m 0 min 0 min 0 W/m 0,0 km/h (0 Bft) 93,62 %
01.08.2019 03:22 15,8 C 14,4 C 14,4 C 81 % 1017,5 hPa 0,0 l/m 0 min 0 min 0 W/m 6,4 km/h (2 Bft) 95,74 %
01.08.2019 03:24 15,8 C 14,4 C 14,4 C 81 % 1017,5 hPa 0,0 l/m 0 min 0 min 0 W/m 3,2 km/h (1 Bft) 95,74 %
01.08.2019 03:26 15,7 C 14,4 C 14,4 C 81 % 1017,6 hPa 0,0 l/m 0 min 0 min 0 W/m 3,2 km/h (1 Bft) 94,74 %
01.08.2019 03:28 15,7 C 14,4 C 14,4 C 81 % 1017,4 hPa 0,0 l/m 0 min 0 min 0 W/m 6,4 km/h (2 Bft) 95,83 %
01.08.2019 03:30 15,7 C 14,4 C 14,4 C 81 % 1017,5 hPa 0,0 l/m 0 min 0 min 0 W/m 3,2 km/h (1 Bft) 95,65 %
01.08.2019 03:32 15,7 C 14,4 C 14,4 C 81 % 1017,5 hPa 0,0 l/m 0 min 0 min 0 W/m 3,2 km/h (1 Bft) 93,62 %
01.08.2019 03:34 15,7 C 14,4 C 14,4 C 81 % 1017,5 hPa 0,0 l/m 0 min 0 min 0 W/m 6,4 km/h (2 Bft) 95,74 %
01.08.2019 03:36 15,6 C 14,4 C 14,4 C 81 % 1017,5 hPa 0,0 l/m 0 min 0 min 0 W/m 6,4 km/h (2 Bft) 93,62 %
01.08.2019 03:38 15,6 C 14,4 C 14,4 C 81 % 1017,5 hPa 0,0 l/m 0 min 0 min 0 W/m 3,2 km/h (1 Bft) 95,74 %
01.08.2019 03:40 15,6 C 14,4 C 14,4 C 81 % 1017,4 hPa 0,0 l/m 0 min 0 min 0 W/m 6,4 km/h (2 Bft) 93,48 %
01.08.2019 03:42 15,6 C 14,4 C 14,4 C 82 % 1017,4 hPa 0,0 l/m 0 min 0 min 0 W/m 3,2 km/h (1 Bft) 95,74 %
01.08.2019 03:44 15,6 C 14,4 C 14,4 C 82 % 1017,3 hPa 0,0 l/m 0 min 0 min 0 W/m 0,0 km/h (0 Bft) 95,74 %
01.08.2019 03:46 15,6 C 14,4 C 14,4 C 82 % 1017,3 hPa 0,0 l/m 0 min 0 min 0 W/m 3,2 km/h (1 Bft) 94,55 %
01.08.2019 03:48 15,6 C 15,0 C 14,4 C 82 % 1017,3 hPa 0,0 l/m 0 min 0 min 0 W/m 6,4 km/h (2 Bft) 94,74 %
01.08.2019 03:50 15,6 C 15,0 C 14,4 C 82 % 1017,4 hPa 0,0 l/m 0 min 0 min 0 W/m 6,4 km/h (2 Bft) 95,74 %
01.08.2019 03:52 15,6 C 15,0 C 15,0 C 82 % 1017,3 hPa 0,0 l/m 0 min 0 min 0 W/m 3,2 km/h (1 Bft) 95,74 %
01.08.2019 03:54 15,6 C 15,0 C 15,0 C 82 % 1017,4 hPa 0,0 l/m 0 min 0 min 0 W/m 6,4 km/h (2 Bft) 95,74 %
01.08.2019 03:56 15,6 C 15,0 C 15,0 C 82 % 1017,3 hPa 0,0 l/m 0 min 0 min 0 W/m 6,4 km/h (2 Bft) 97,83 %
01.08.2019 03:58 15,6 C 15,0 C 15,0 C 82 % 1017,4 hPa 0,0 l/m 0 min 0 min 0 W/m 3,2 km/h (1 Bft) 97,87 %
01.08.2019 04:00 15,6 C 15,0 C 15,0 C 82 % 1017,3 hPa 0,0 l/m 0 min 0 min 0 W/m 3,2 km/h (1 Bft) 97,87 %
01.08.2019 04:05 15,6 C 15,0 C 15,0 C 82 % 1017,2 hPa 0,0 l/m 0 min 0 min 0 W/m 9,7 km/h (2 Bft) 90,00 %
01.08.2019 04:06 15,6 C 15,0 C 15,0 C 82 % 1017,2 hPa 0,0 l/m 0 min 0 min 0 W/m 3,2 km/h (1 Bft) 100,00 %
01.08.2019 04:08 15,6 C 15,0 C 15,0 C 82 % 1017,2 hPa 0,0 l/m 0 min 0 min 0 W/m 9,7 km/h (2 Bft) 100,00 %
01.08.2019 04:10 15,6 C 15,0 C 15,0 C 82 % 1017,2 hPa 0,0 l/m 0 min 0 min 0 W/m 6,4 km/h (2 Bft) 97,87 %
01.08.2019 04:12 15,6 C 15,0 C 15,0 C 82 % 1017,3 hPa 0,0 l/m 0 min 0 min 0 W/m 6,4 km/h (2 Bft) 100,00 %
01.08.2019 04:14 15,6 C 15,0 C 15,0 C 82 % 1017,2 hPa 0,0 l/m 0 min 0 min 0 W/m 9,7 km/h (2 Bft) 100,00 %
01.08.2019 04:16 15,6 C 15,0 C 15,0 C 82 % 1017,3 hPa 0,0 l/m 0 min 0 min 0 W/m 6,4 km/h (2 Bft) 97,87 %
01.08.2019 04:18 15,6 C 15,0 C 15,0 C 82 % 1017,2 hPa 0,0 l/m 0 min 0 min 0 W/m 9,7 km/h (2 Bft) 100,00 %
01.08.2019 04:20 15,6 C 15,0 C 15,0 C 82 % 1017,2 hPa 0,0 l/m 0 min 0 min 0 W/m 12,9 km/h (3 Bft) 100,00 %
01.08.2019 04:22 15,6 C 15,0 C 15,0 C 82 % 1017,2 hPa 0,0 l/m 0 min 0 min 0 W/m 3,2 km/h (1 Bft) 100,00 %
01.08.2019 04:24 15,7 C 15,0 C 15,0 C 82 % 1017,2 hPa 0,0 l/m 0 min 0 min 0 W/m 6,4 km/h (2 Bft) 100,00 %
01.08.2019 04:26 15,6 C 15,0 C 15,0 C 82 % 1017,2 hPa 0,0 l/m 0 min 0 min 0 W/m 3,2 km/h (1 Bft) 95,74 %
01.08.2019 04:28 15,7 C 15,0 C 15,0 C 82 % 1017,3 hPa 0,0 l/m 0 min 0 min 0 W/m 3,2 km/h (1 Bft) 100,00 %
01.08.2019 04:30 15,7 C 15,0 C 15,0 C 82 % 1017,4 hPa 0,0 l/m 0 min 0 min 0 W/m 3,2 km/h (1 Bft) 97,83 %
01.08.2019 04:32 15,7 C 15,0 C 15,0 C 82 % 1017,3 hPa 0,0 l/m 0 min 0 min 0 W/m 3,2 km/h (1 Bft) 97,87 %
01.08.2019 04:34 15,7 C 15,0 C 15,0 C 82 % 1017,4 hPa 0,0 l/m 0 min 0 min 0 W/m 6,4 km/h (2 Bft) 100,00 %
01.08.2019 04:36 15,7 C 15,0 C 15,0 C 82 % 1017,4 hPa 0,0 l/m 0 min 0 min 0 W/m 0,0 km/h (0 Bft) 100,00 %
01.08.2019 04:38 15,7 C 15,0 C 15,0 C 82 % 1017,5 hPa 0,0 l/m 0 min 0 min 0 W/m 3,2 km/h (1 Bft) 100,00 %
01.08.2019 04:40 15,7 C 15,0 C 15,0 C 82 % 1017,4 hPa 0,0 l/m 0 min 0 min 0 W/m 0,0 km/h (0 Bft) 100,00 %
01.08.2019 04:42 15,7 C 15,0 C 15,0 C 82 % 1017,4 hPa 0,0 l/m 0 min 0 min 0 W/m 6,4 km/h (2 Bft) 100,00 %
01.08.2019 04:44 15,7 C 15,0 C 15,0 C 82 % 1017,3 hPa 0,0 l/m 0 min 0 min 0 W/m 6,4 km/h (2 Bft) 100,00 %
01.08.2019 04:46 15,7 C 15,0 C 15,0 C 82 % 1017,4 hPa 0,0 l/m 0 min 0 min 0 W/m 9,7 km/h (2 Bft) 100,00 %
01.08.2019 04:48 15,7 C 15,0 C 15,0 C 82 % 1017,3 hPa 0,0 l/m 0 min 0 min 0 W/m 6,4 km/h (2 Bft) 100,00 %
01.08.2019 04:50 15,7 C 15,0 C 15,0 C 82 % 1017,3 hPa 0,0 l/m 0 min 0 min 0 W/m 3,2 km/h (1 Bft) 100,00 %
01.08.2019 04:52 15,8 C 15,0 C 15,0 C 82 % 1017,3 hPa 0,0 l/m 0 min 0 min 0 W/m 9,7 km/h (2 Bft) 100,00 %
01.08.2019 04:54 15,8 C 15,0 C 15,0 C 82 % 1017,3 hPa 0,0 l/m 0 min 0 min 0 W/m 6,4 km/h (2 Bft) 100,00 %
01.08.2019 04:56 15,8 C 15,0 C 15,0 C 82 % 1017,3 hPa 0,0 l/m 0 min 0 min 0 W/m 9,7 km/h (2 Bft) 100,00 %
01.08.2019 04:58 15,8 C 15,0 C 15,0 C 82 % 1017,4 hPa 0,0 l/m 0 min 0 min 0 W/m 9,7 km/h (2 Bft) 100,00 %
01.08.2019 05:00 15,8 C 15,0 C 15,0 C 82 % 1017,3 hPa 0,0 l/m 0 min 0 min 0 W/m 6,4 km/h (2 Bft) 100,00 %
01.08.2019 05:02 15,8 C 15,0 C 15,0 C 82 % 1017,3 hPa 0,0 l/m 0 min 0 min 0 W/m 9,7 km/h (2 Bft) 100,00 %
01.08.2019 05:04 15,8 C 15,0 C 15,0 C 82 % 1017,3 hPa 0,0 l/m 0 min 0 min 0 W/m 3,2 km/h (1 Bft) 100,00 %
01.08.2019 05:06 15,8 C 15,0 C 15,0 C 82 % 1017,3 hPa 0,0 l/m 0 min 0 min 0 W/m 0,0 km/h (0 Bft) 100,00 %
01.08.2019 05:08 15,8 C 15,0 C 15,0 C 82 % 1017,3 hPa 0,0 l/m 0 min 0 min 0 W/m 0,0 km/h (0 Bft) 100,00 %
01.08.2019 05:10 15,8 C 14,4 C 14,4 C 82 % 1017,3 hPa 0,0 l/m 0 min 0 min 0 W/m 3,2 km/h (1 Bft) 97,87 %
01.08.2019 05:12 15,8 C 15,0 C 14,4 C 82 % 1017,3 hPa 0,0 l/m 0 min 0 min 0 W/m 9,7 km/h (2 Bft) 100,00 %
01.08.2019 05:14 15,8 C 14,4 C 14,4 C 82 % 1017,3 hPa 0,0 l/m 0 min 0 min 0 W/m 3,2 km/h (1 Bft) 100,00 %
01.08.2019 05:16 15,8 C 14,4 C 14,4 C 82 % 1017,3 hPa 0,0 l/m 0 min 0 min 0 W/m 9,7 km/h (2 Bft) 97,83 %
01.08.2019 05:18 15,8 C 14,4 C 14,4 C 82 % 1017,2 hPa 0,0 l/m 0 min 0 min 0 W/m 6,4 km/h (2 Bft) 100,00 %
01.08.2019 05:20 15,8 C 14,4 C 14,4 C 82 % 1017,2 hPa 0,0 l/m 0 min 0 min 0 W/m 9,7 km/h (2 Bft) 97,92 %
01.08.2019 05:22 15,8 C 14,4 C 14,4 C 82 % 1017,3 hPa 0,0 l/m 0 min 0 min 0 W/m 0,0 km/h (0 Bft) 97,87 %
01.08.2019 05:24 15,7 C 14,4 C 14,4 C 82 % 1017,2 hPa 0,0 l/m 0 min 0 min 0 W/m 9,7 km/h (2 Bft) 97,92 %
01.08.2019 05:26 15,7 C 14,4 C 14,4 C 82 % 1017,3 hPa 0,0 l/m 0 min 0 min 0 W/m 0,0 km/h (0 Bft) 97,83 %
01.08.2019 05:28 15,7 C 14,4 C 14,4 C 82 % 1017,3 hPa 0,0 l/m 0 min 0 min 0 W/m 0,0 km/h (0 Bft) 97,87 %
01.08.2019 05:30 15,7 C 14,4 C 14,4 C 82 % 1017,3 hPa 0,0 l/m 0 min 0 min 0 W/m 6,4 km/h (2 Bft) 97,87 %
01.08.2019 05:32 15,7 C 14,4 C 14,4 C 82 % 1017,3 hPa 0,0 l/m 0 min 0 min 0 W/m 0,0 km/h (0 Bft) 95,74 %
01.08.2019 05:34 15,7 C 14,4 C 14,4 C 82 % 1017,2 hPa 0,0 l/m 0 min 0 min 0 W/m 3,2 km/h (1 Bft) 97,92 %
01.08.2019 05:36 15,7 C 14,4 C 14,4 C 82 % 1017,2 hPa 0,0 l/m 0 min 0 min 0 W/m 0,0 km/h (0 Bft) 95,83 %
01.08.2019 05:38 15,7 C 14,4 C 14,4 C 82 % 1017,3 hPa 0,0 l/m 0 min 0 min 0 W/m 6,4 km/h (2 Bft) 97,83 %
01.08.2019 05:40 15,7 C 14,4 C 14,4 C 82 % 1017,2 hPa 0,0 l/m 0 min 0 min 0 W/m 3,2 km/h (1 Bft) 95,74 %
01.08.2019 05:42 15,7 C 14,4 C 13,9 C 82 % 1017,4 hPa 0,0 l/m 0 min 0 min 0 W/m 0,0 km/h (0 Bft) 95,74 %
01.08.2019 05:44 15,6 C 14,4 C 13,9 C 82 % 1017,3 hPa 0,0 l/m 0 min 0 min 0 W/m 3,2 km/h (1 Bft) 97,87 %
01.08.2019 05:46 15,6 C 14,4 C 13,9 C 82 % 1017,3 hPa 0,0 l/m 0 min 0 min 0 W/m 0,0 km/h (0 Bft) 95,74 %
01.08.2019 05:48 15,6 C 14,4 C 13,9 C 82 % 1017,3 hPa 0,0 l/m 0 min 0 min 0 W/m 0,0 km/h (0 Bft) 93,62 %
01.08.2019 05:50 15,6 C 14,4 C 13,9 C 82 % 1017,3 hPa 0,0 l/m 0 min 0 min 0 W/m 0,0 km/h (0 Bft) 95,65 %
01.08.2019 05:52 15,6 C 14,4 C 13,9 C 82 % 1017,3 hPa 0,0 l/m 0 min 0 min 0 W/m 3,2 km/h (1 Bft) 93,62 %
01.08.2019 05:54 15,6 C 14,4 C 13,9 C 82 % 1017,2 hPa 0,0 l/m 0 min 0 min 0 W/m 3,2 km/h (1 Bft) 95,74 %
01.08.2019 05:56 15,5 C 14,4 C 13,9 C 82 % 1017,3 hPa 0,0 l/m 0 min 0 min 0 W/m 3,2 km/h (1 Bft) 93,62 %
01.08.2019 05:58 15,5 C 14,4 C 13,9 C 82 % 1017,3 hPa 0,0 l/m 0 min 0 min 0 W/m 3,2 km/h (1 Bft) 95,35 %
01.08.2019 06:00 15,5 C 13,9 C 13,9 C 82 % 1017,3 hPa 0,0 l/m 0 min 0 min 0 W/m 0,0 km/h (0 Bft) 95,74 %
01.08.2019 06:02 15,5 C 13,9 C 13,9 C 82 % 1017,3 hPa 0,0 l/m 0 min 0 min 0 W/m 0,0 km/h (0 Bft) 95,65 %
01.08.2019 06:04 15,4 C 13,9 C 13,9 C 83 % 1017,3 hPa 0,0 l/m 0 min 0 min 0 W/m 0,0 km/h (0 Bft) 96,00 %
01.08.2019 06:08 15,4 C 13,9 C 13,9 C 83 % 1017,3 hPa 0,0 l/m 0 min 0 min 1 W/m 0,0 km/h (0 Bft) 95,79 %
01.08.2019 06:10 15,4 C 13,9 C 13,9 C 83 % 1017,4 hPa 0,0 l/m 0 min 0 min 5 W/m 0,0 km/h (0 Bft) 95,74 %
01.08.2019 06:12 15,4 C 13,9 C 13,9 C 83 % 1017,3 hPa 0,0 l/m 0 min 0 min 5 W/m 0,0 km/h (0 Bft) 97,87 %
01.08.2019 06:14 15,4 C 13,9 C 13,9 C 83 % 1017,4 hPa 0,0 l/m 0 min 0 min 6 W/m 3,2 km/h (1 Bft) 97,83 %
01.08.2019 06:16 15,3 C 13,9 C 13,9 C 83 % 1017,3 hPa 0,0 l/m 0 min 0 min 8 W/m 3,2 km/h (1 Bft) 97,87 %
01.08.2019 06:18 15,3 C 13,9 C 13,9 C 83 % 1017,4 hPa 0,0 l/m 0 min 0 min 11 W/m 0,0 km/h (0 Bft) 97,87 %
01.08.2019 06:20 15,3 C 13,9 C 13,9 C 83 % 1017,4 hPa 0,0 l/m 0 min 0 min 10 W/m 3,2 km/h (1 Bft) 97,87 %
01.08.2019 06:22 15,3 C 14,4 C 13,9 C 83 % 1017,4 hPa 0,0 l/m 0 min 0 min 11 W/m 0,0 km/h (0 Bft) 97,87 %
01.08.2019 06:24 15,3 C 14,4 C 13,9 C 84 % 1017,4 hPa 0,0 l/m 0 min 0 min 12 W/m 3,2 km/h (1 Bft) 95,74 %
01.08.2019 06:26 15,2 C 14,4 C 13,9 C 84 % 1017,3 hPa 0,0 l/m 0 min 0 min 12 W/m 3,2 km/h (1 Bft) 97,83 %
01.08.2019 06:28 15,2 C 14,4 C 13,9 C 84 % 1017,4 hPa 0,0 l/m 0 min 0 min 12 W/m 3,2 km/h (1 Bft) 97,87 %
01.08.2019 06:30 15,2 C 14,4 C 13,9 C 84 % 1017,3 hPa 0,0 l/m 0 min 0 min 12 W/m 3,2 km/h (1 Bft) 97,87 %
01.08.2019 06:32 15,2 C 14,4 C 13,9 C 84 % 1017,4 hPa 0,0 l/m 0 min 0 min 12 W/m 3,2 km/h (1 Bft) 97,87 %
01.08.2019 06:34 15,2 C 13,9 C 13,9 C 84 % 1017,3 hPa 0,0 l/m 0 min 0 min 14 W/m 3,2 km/h (1 Bft) 97,87 %
01.08.2019 06:36 15,2 C 13,9 C 13,9 C 84 % 1017,3 hPa 0,0 l/m 0 min 0 min 17 W/m 3,2 km/h (1 Bft) 97,87 %
01.08.2019 06:38 15,1 C 14,4 C 13,9 C 84 % 1017,3 hPa 0,0 l/m 0 min 0 min 18 W/m 3,2 km/h (1 Bft) 97,83 %
01.08.2019 06:40 15,1 C 14,4 C 13,9 C 84 % 1017,3 hPa 0,0 l/m 0 min 0 min 19 W/m 3,2 km/h (1 Bft) 100,00 %
01.08.2019 06:42 15,1 C 14,4 C 13,9 C 84 % 1017,3 hPa 0,0 l/m 0 min 0 min 20 W/m 3,2 km/h (1 Bft) 100,00 %
01.08.2019 06:44 15,1 C 14,4 C 13,9 C 84 % 1017,3 hPa 0,0 l/m 0 min 0 min 25 W/m 0,0 km/h (0 Bft) 100,00 %
01.08.2019 06:46 15,1 C 14,4 C 14,4 C 84 % 1017,3 hPa 0,0 l/m 0 min 0 min 25 W/m 0,0 km/h (0 Bft) 100,00 %
01.08.2019 06:48 15,1 C 14,4 C 14,4 C 85 % 1017,4 hPa 0,0 l/m 0 min 0 min 21 W/m 6,4 km/h (2 Bft) 97,87 %
01.08.2019 06:50 15,1 C 14,4 C 14,4 C 85 % 1017,4 hPa 0,0 l/m 0 min 0 min 21 W/m 9,7 km/h (2 Bft) 97,83 %
01.08.2019 06:52 15,1 C 14,4 C 14,4 C 85 % 1017,3 hPa 0,0 l/m 0 min 0 min 23 W/m 3,2 km/h (1 Bft) 98,00 %
01.08.2019 06:54 15,1 C 14,4 C 14,4 C 85 % 1017,3 hPa 0,0 l/m 0 min 0 min 22 W/m 6,4 km/h (2 Bft) 97,87 %
01.08.2019 06:56 15,1 C 14,4 C 14,4 C 85 % 1017,4 hPa 0,0 l/m 0 min 0 min 23 W/m 6,4 km/h (2 Bft) 97,87 %
01.08.2019 06:58 15,1 C 14,4 C 14,4 C 85 % 1017,4 hPa 0,0 l/m 0 min 0 min 23 W/m 3,2 km/h (1 Bft) 97,87 %
01.08.2019 07:00 15,1 C 14,4 C 14,4 C 85 % 1017,3 hPa 0,0 l/m 0 min 0 min 23 W/m 6,4 km/h (2 Bft) 97,83 %
01.08.2019 07:02 15,1 C 14,4 C 14,4 C 85 % 1017,4 hPa 0,0 l/m 0 min 0 min 23 W/m 6,4 km/h (2 Bft) 95,74 %
01.08.2019 07:04 15,1 C 14,4 C 14,4 C 85 % 1017,4 hPa 0,0 l/m 0 min 0 min 25 W/m 9,7 km/h (2 Bft) 97,67 %
01.08.2019 07:06 15,1 C 14,4 C 14,4 C 84 % 1017,4 hPa 0,0 l/m 0 min 0 min 26 W/m 9,7 km/h (2 Bft) 97,92 %
01.08.2019 07:08 15,1 C 14,4 C 14,4 C 84 % 1017,4 hPa 0,0 l/m 0 min 0 min 28 W/m 9,7 km/h (2 Bft) 97,87 %
01.08.2019 07:10 15,1 C 15,0 C 14,4 C 84 % 1017,5 hPa 0,0 l/m 0 min 0 min 31 W/m 9,7 km/h (2 Bft) 97,87 %
01.08.2019 07:12 15,1 C 15,0 C 14,4 C 84 % 1017,4 hPa 0,0 l/m 0 min 0 min 33 W/m 3,2 km/h (1 Bft) 97,92 %
01.08.2019 07:14 15,1 C 15,0 C 14,4 C 84 % 1017,5 hPa 0,0 l/m 0 min 0 min 34 W/m 9,7 km/h (2 Bft) 95,83 %
01.08.2019 07:16 15,2 C 15,0 C 14,4 C 85 % 1017,4 hPa 0,0 l/m 0 min 0 min 38 W/m 6,4 km/h (2 Bft) 97,87 %
01.08.2019 07:18 15,2 C 15,6 C 15,0 C 85 % 1017,4 hPa 0,0 l/m 0 min 0 min 46 W/m 12,9 km/h (3 Bft) 95,74 %
01.08.2019 07:20 15,2 C 15,6 C 15,0 C 85 % 1017,4 hPa 0,0 l/m 0 min 0 min 56 W/m 12,9 km/h (3 Bft) 97,83 %
01.08.2019 07:22 15,2 C 15,6 C 15,0 C 85 % 1017,4 hPa 0,0 l/m 0 min 0 min 63 W/m 6,4 km/h (2 Bft) 97,87 %
01.08.2019 07:24 15,3 C 15,6 C 15,0 C 85 % 1017,4 hPa 0,0 l/m 0 min 0 min 57 W/m 16,1 km/h (3 Bft) 97,87 %
01.08.2019 07:26 15,3 C 15,6 C 15,0 C 84 % 1017,4 hPa 0,0 l/m 0 min 0 min 53 W/m 9,7 km/h (2 Bft) 95,74 %
01.08.2019 07:28 15,3 C 15,6 C 15,0 C 84 % 1017,5 hPa 0,0 l/m 0 min 0 min 53 W/m 9,7 km/h (2 Bft) 97,87 %
01.08.2019 07:30 15,4 C 15,6 C 15,0 C 84 % 1017,4 hPa 0,0 l/m 0 min 0 min 51 W/m 6,4 km/h (2 Bft) 97,87 %
01.08.2019 07:32 15,4 C 15,6 C 15,0 C 84 % 1017,5 hPa 0,0 l/m 0 min 0 min 45 W/m 6,4 km/h (2 Bft) 97,87 %
01.08.2019 07:34 15,4 C 15,6 C 15,0 C 84 % 1017,4 hPa 0,0 l/m 0 min 0 min 45 W/m 9,7 km/h (2 Bft) 97,87 %
01.08.2019 07:36 15,5 C 15,6 C 15,0 C 84 % 1017,4 hPa 0,0 l/m 0 min 0 min 43 W/m 6,4 km/h (2 Bft) 97,83 %
01.08.2019 07:38 15,5 C 15,6 C 15,0 C 84 % 1017,5 hPa 0,0 l/m 0 min 0 min 45 W/m 6,4 km/h (2 Bft) 97,87 %
01.08.2019 07:40 15,6 C 15,6 C 15,6 C 84 % 1017,4 hPa 0,0 l/m 0 min 0 min 44 W/m 6,4 km/h (2 Bft) 97,87 %
01.08.2019 07:42 15,6 C 15,6 C 15,6 C 84 % 1017,4 hPa 0,0 l/m 0 min 0 min 46 W/m 9,7 km/h (2 Bft) 97,87 %
01.08.2019 07:44 15,6 C 16,1 C 15,6 C 84 % 1017,4 hPa 0,0 l/m 0 min 0 min 48 W/m 9,7 km/h (2 Bft) 100,00 %
01.08.2019 07:46 15,7 C 16,1 C 15,6 C 84 % 1017,4 hPa 0,0 l/m 0 min 0 min 52 W/m 9,7 km/h (2 Bft) 97,83 %
01.08.2019 07:48 15,7 C 16,1 C 15,6 C 83 % 1017,4 hPa 0,0 l/m 0 min 0 min 57 W/m 6,4 km/h (2 Bft) 100,00 %
01.08.2019 07:50 15,7 C 16,1 C 15,6 C 83 % 1017,5 hPa 0,0 l/m 0 min 0 min 63 W/m 9,7 km/h (2 Bft) 97,87 %
01.08.2019 07:52 15,8 C 16,1 C 15,6 C 83 % 1017,5 hPa 0,0 l/m 0 min 0 min 65 W/m 12,9 km/h (3 Bft) 100,00 %
01.08.2019 07:54 15,8 C 16,7 C 15,6 C 83 % 1017,5 hPa 0,0 l/m 0 min 0 min 62 W/m 9,7 km/h (2 Bft) 100,00 %
01.08.2019 07:56 15,9 C 16,7 C 16,1 C 83 % 1017,5 hPa 0,0 l/m 0 min 0 min 64 W/m 9,7 km/h (2 Bft) 97,87 %
01.08.2019 07:58 15,9 C 16,7 C 16,1 C 83 % 1017,5 hPa 0,0 l/m 0 min 0 min 70 W/m 6,4 km/h (2 Bft) 97,83 %
01.08.2019 08:00 16,0 C 16,7 C 16,1 C 83 % 1017,5 hPa 0,0 l/m 0 min 0 min 72 W/m 9,7 km/h (2 Bft) 97,62 %
01.08.2019 08:02 16,0 C 16,7 C 16,1 C 83 % 1017,5 hPa 0,0 l/m 0 min 0 min 63 W/m 16,1 km/h (3 Bft) 100,00 %
01.08.2019 08:04 16,1 C 17,2 C 16,1 C 83 % 1017,5 hPa 0,0 l/m 0 min 0 min 58 W/m 9,7 km/h (2 Bft) 100,00 %
01.08.2019 08:06 16,2 C 17,2 C 16,1 C 83 % 1017,5 hPa 0,0 l/m 0 min 0 min 55 W/m 6,4 km/h (2 Bft) 100,00 %
01.08.2019 08:08 16,2 C 17,2 C 16,7 C 82 % 1017,5 hPa 0,0 l/m 0 min 0 min 54 W/m 9,7 km/h (2 Bft) 100,00 %
01.08.2019 08:10 16,3 C 17,2 C 16,7 C 82 % 1017,4 hPa 0,0 l/m 0 min 0 min 56 W/m 12,9 km/h (3 Bft) 97,87 %
01.08.2019 08:12 16,4 C 17,2 C 16,7 C 82 % 1017,4 hPa 0,0 l/m 0 min 0 min 56 W/m 9,7 km/h (2 Bft) 95,74 %
01.08.2019 08:14 16,4 C 17,2 C 16,7 C 82 % 1017,4 hPa 0,0 l/m 0 min 0 min 58 W/m 12,9 km/h (3 Bft) 97,92 %
01.08.2019 08:16 16,5 C 17,2 C 16,7 C 82 % 1017,4 hPa 0,0 l/m 0 min 0 min 60 W/m 9,7 km/h (2 Bft) 97,92 %
01.08.2019 08:18 16,6 C 17,2 C 16,7 C 81 % 1017,4 hPa 0,0 l/m 0 min 0 min 70 W/m 12,9 km/h (3 Bft) 97,87 %
01.08.2019 08:20 16,7 C 17,8 C 16,7 C 81 % 1017,4 hPa 0,0 l/m 0 min 0 min 114 W/m 9,7 km/h (2 Bft) 97,83 %
01.08.2019 08:22 16,8 C 18,3 C 17,2 C 81 % 1017,5 hPa 0,0 l/m 0 min 0 min 156 W/m 16,1 km/h (3 Bft) 95,74 %
01.08.2019 08:24 16,9 C 18,3 C 17,8 C 81 % 1017,5 hPa 0,0 l/m 0 min 0 min 165 W/m 16,1 km/h (3 Bft) 97,87 %
01.08.2019 08:26 17,0 C 18,9 C 17,8 C 81 % 1017,4 hPa 0,0 l/m 0 min 0 min 126 W/m 6,4 km/h (2 Bft) 95,74 %
01.08.2019 08:28 17,1 C 18,3 C 17,8 C 81 % 1017,4 hPa 0,0 l/m 0 min 0 min 93 W/m 12,9 km/h (3 Bft) 93,62 %
01.08.2019 08:30 17,2 C 18,3 C 17,8 C 81 % 1017,5 hPa 0,0 l/m 0 min 0 min 104 W/m 16,1 km/h (3 Bft) 97,83 %
01.08.2019 08:32 17,4 C 18,3 C 17,8 C 81 % 1017,4 hPa 0,0 l/m 0 min 0 min 107 W/m 9,7 km/h (2 Bft) 97,87 %
01.08.2019 08:34 17,4 C 18,9 C 17,8 C 81 % 1017,4 hPa 0,0 l/m 0 min 0 min 102 W/m 9,7 km/h (2 Bft) 97,87 %
01.08.2019 08:36 17,6 C 18,9 C 17,8 C 81 % 1017,3 hPa 0,0 l/m 0 min 0 min 102 W/m 9,7 km/h (2 Bft) 91,49 %
01.08.2019 08:38 17,6 C 19,4 C 17,8 C 81 % 1017,3 hPa 0,0 l/m 0 min 0 min 89 W/m 9,7 km/h (2 Bft) 97,87 %
01.08.2019 08:40 17,7 C 19,4 C 17,8 C 81 % 1017,3 hPa 0,0 l/m 0 min 0 min 76 W/m 6,4 km/h (2 Bft) 95,74 %
01.08.2019 08:42 17,8 C 20,0 C 17,8 C 81 % 1017,3 hPa 0,0 l/m 0 min 0 min 89 W/m 9,7 km/h (2 Bft) 93,48 %
01.08.2019 08:44 17,9 C 21,1 C 17,8 C 81 % 1017,3 hPa 0,0 l/m 0 min 0 min 125 W/m 12,9 km/h (3 Bft) 93,62 %
01.08.2019 08:46 18,0 C 22,2 C 18,3 C 81 % 1017,3 hPa 0,0 l/m 0 min 0 min 181 W/m 12,9 km/h (3 Bft) 93,62 %
01.08.2019 08:48 18,1 C 21,7 C 18,3 C 81 % 1017,2 hPa 0,0 l/m 0 min 0 min 198 W/m 12,9 km/h (3 Bft) 95,74 %
01.08.2019 08:50 18,2 C 20,6 C 18,9 C 80 % 1017,3 hPa 0,0 l/m 0 min 0 min 158 W/m 16,1 km/h (3 Bft) 97,87 %
01.08.2019 08:52 18,3 C 21,1 C 19,4 C 80 % 1017,3 hPa 0,0 l/m 2 min 0 min 250 W/m 9,7 km/h (2 Bft) 97,87 %
01.08.2019 08:54 18,4 C 21,1 C 19,4 C 80 % 1017,3 hPa 0,0 l/m 0 min 0 min 199 W/m 9,7 km/h (2 Bft) 95,65 %
01.08.2019 08:56 18,6 C 20,6 C 19,4 C 79 % 1017,2 hPa 0,0 l/m 0 min 0 min 160 W/m 9,7 km/h (2 Bft) 95,74 %
01.08.2019 08:58 18,6 C 21,1 C 19,4 C 79 % 1017,2 hPa 0,0 l/m 0 min 0 min 172 W/m 6,4 km/h (2 Bft) 97,87 %
01.08.2019 09:00 18,7 C 21,1 C 20,0 C 79 % 1017,2 hPa 0,0 l/m 0 min 0 min 177 W/m 12,9 km/h (3 Bft) 97,87 %
01.08.2019 09:02 18,8 C 20,6 C 20,0 C 78 % 1017,2 hPa 0,0 l/m 0 min 0 min 147 W/m 16,1 km/h (3 Bft) 95,74 %
01.08.2019 09:04 18,9 C 20,6 C 19,4 C 78 % 1017,3 hPa 0,0 l/m 0 min 0 min 119 W/m 12,9 km/h (3 Bft) 97,87 %
01.08.2019 09:06 19,0 C 21,7 C 21,1 C 77 % 1017,2 hPa 0,0 l/m 2 min 0 min 324 W/m 19,3 km/h (3 Bft) 97,83 %
01.08.2019 09:08 19,1 C 21,7 C 21,1 C 77 % 1017,2 hPa 0,0 l/m 2 min 0 min 371 W/m 12,9 km/h (3 Bft) 95,74 %
01.08.2019 09:10 19,2 C 22,8 C 22,8 C 77 % 1017,3 hPa 0,0 l/m 2 min 0 min 379 W/m 6,4 km/h (2 Bft) 95,74 %
01.08.2019 09:12 19,3 C 23,3 C 23,3 C 77 % 1017,2 hPa 0,0 l/m 2 min 0 min 417 W/m 16,1 km/h (3 Bft) 97,87 %
01.08.2019 09:14 19,4 C 23,9 C 23,9 C 77 % 1017,2 hPa 0,0 l/m 2 min 0 min 413 W/m 16,1 km/h (3 Bft) 97,87 %
01.08.2019 09:16 19,5 C 23,9 C 24,4 C 76 % 1017,2 hPa 0,0 l/m 2 min 0 min 420 W/m 9,7 km/h (2 Bft) 97,87 %
01.08.2019 09:18 19,7 C 23,9 C 23,9 C 76 % 1017,2 hPa 0,0 l/m 2 min 0 min 427 W/m 9,7 km/h (2 Bft) 97,83 %
01.08.2019 09:20 19,8 C 23,9 C 24,4 C 75 % 1017,2 hPa 0,0 l/m 2 min 0 min 431 W/m 12,9 km/h (3 Bft) 97,87 %
01.08.2019 09:22 19,9 C 23,9 C 23,9 C 75 % 1017,2 hPa 0,0 l/m 2 min 0 min 439 W/m 16,1 km/h (3 Bft) 97,87 %
01.08.2019 09:24 20,0 C 23,9 C 24,4 C 74 % 1017,2 hPa 0,0 l/m 2 min 0 min 447 W/m 9,7 km/h (2 Bft) 97,87 %
01.08.2019 09:26 20,1 C 23,3 C 23,3 C 73 % 1017,2 hPa 0,0 l/m 2 min 0 min 424 W/m 12,9 km/h (3 Bft) 95,74 %
01.08.2019 09:28 20,2 C 23,3 C 23,3 C 73 % 1017,1 hPa 0,0 l/m 2 min 0 min 422 W/m 16,1 km/h (3 Bft) 97,83 %
01.08.2019 09:30 20,3 C 23,9 C 24,4 C 73 % 1017,2 hPa 0,0 l/m 2 min 0 min 422 W/m 6,4 km/h (2 Bft) 97,87 %
01.08.2019 09:32 20,4 C 23,3 C 24,4 C 73 % 1017,1 hPa 0,0 l/m 2 min 0 min 484 W/m 6,4 km/h (2 Bft) 97,87 %
01.08.2019 09:34 20,4 C 23,3 C 23,3 C 72 % 1017,2 hPa 0,0 l/m 2 min 0 min 497 W/m 12,9 km/h (3 Bft) 97,87 %
01.08.2019 09:36 20,6 C 23,9 C 24,4 C 72 % 1017,2 hPa 0,0 l/m 2 min 0 min 497 W/m 16,1 km/h (3 Bft) 97,87 %
01.08.2019 09:38 20,7 C 25,6 C 25,6 C 72 % 1017,1 hPa 0,0 l/m 2 min 0 min 518 W/m 9,7 km/h (2 Bft) 95,74 %
01.08.2019 09:40 20,8 C 23,9 C 23,9 C 72 % 1017,2 hPa 0,0 l/m 2 min 0 min 520 W/m 9,7 km/h (2 Bft) 97,83 %
01.08.2019 09:42 20,8 C 24,4 C 24,4 C 71 % 1017,1 hPa 0,0 l/m 2 min 0 min 524 W/m 9,7 km/h (2 Bft) 97,87 %
01.08.2019 09:44 20,9 C 25,0 C 25,6 C 71 % 1017,1 hPa 0,0 l/m 2 min 0 min 543 W/m 12,9 km/h (3 Bft) 97,87 %
01.08.2019 09:46 21,0 C 25,0 C 26,1 C 71 % 1017,2 hPa 0,0 l/m 2 min 0 min 555 W/m 16,1 km/h (3 Bft) 97,87 %
01.08.2019 09:48 21,1 C 25,0 C 25,6 C 71 % 1017,1 hPa 0,0 l/m 2 min 0 min 563 W/m 9,7 km/h (2 Bft) 97,87 %
01.08.2019 09:50 21,2 C 25,0 C 25,6 C 70 % 1017,2 hPa 0,0 l/m 2 min 0 min 547 W/m 25,7 km/h (4 Bft) 100,00 %
01.08.2019 09:52 21,3 C 23,9 C 25,0 C 69 % 1017,2 hPa 0,0 l/m 2 min 0 min 543 W/m 19,3 km/h (3 Bft) 100,00 %
01.08.2019 09:54 21,3 C 23,9 C 25,0 C 69 % 1017,1 hPa 0,0 l/m 0 min 0 min 189 W/m 12,9 km/h (3 Bft) 97,87 %
01.08.2019 09:56 21,4 C 25,0 C 26,1 C 70 % 1017,2 hPa 0,0 l/m 2 min 0 min 546 W/m 12,9 km/h (3 Bft) 97,87 %
01.08.2019 09:58 21,4 C 25,6 C 26,7 C 69 % 1017,1 hPa 0,0 l/m 2 min 0 min 575 W/m 9,7 km/h (2 Bft) 97,87 %
01.08.2019 10:00 21,6 C 26,1 C 27,2 C 69 % 1017,1 hPa 0,0 l/m 2 min 0 min 602 W/m 12,9 km/h (3 Bft) 95,74 %
01.08.2019 10:02 21,6 C 25,0 C 26,1 C 68 % 1017,2 hPa 0,0 l/m 2 min 0 min 594 W/m 16,1 km/h (3 Bft) 97,87 %
01.08.2019 10:04 21,7 C 25,0 C 26,1 C 68 % 1017,1 hPa 0,0 l/m 2 min 0 min 551 W/m 22,5 km/h (4 Bft) 97,83 %
01.08.2019 10:06 21,7 C 25,6 C 26,1 C 68 % 1017,1 hPa 0,0 l/m 2 min 0 min 538 W/m 19,3 km/h (3 Bft) 97,87 %
01.08.2019 10:08 21,8 C 25,6 C 26,7 C 68 % 1017,1 hPa 0,0 l/m 2 min 0 min 549 W/m 16,1 km/h (3 Bft) 97,87 %
01.08.2019 10:10 21,9 C 24,4 C 26,1 C 68 % 1017,1 hPa 0,0 l/m 2 min 0 min 609 W/m 19,3 km/h (3 Bft) 95,74 %
01.08.2019 10:12 21,9 C 23,9 C 24,4 C 67 % 1017,1 hPa 0,0 l/m 2 min 0 min 615 W/m 22,5 km/h (4 Bft) 97,87 %
01.08.2019 10:14 21,9 C 24,4 C 25,6 C 67 % 1017,1 hPa 0,0 l/m 2 min 0 min 615 W/m 25,7 km/h (4 Bft) 97,87 %
01.08.2019 10:16 22,0 C 25,0 C 26,1 C 68 % 1017,1 hPa 0,0 l/m 2 min 0 min 620 W/m 19,3 km/h (3 Bft) 95,65 %
01.08.2019 10:18 22,0 C 24,4 C 25,6 C 67 % 1017,1 hPa 0,0 l/m 2 min 0 min 629 W/m 38,6 km/h (5 Bft) 97,87 %
01.08.2019 10:20 22,1 C 24,4 C 26,1 C 68 % 1017,1 hPa 0,0 l/m 2 min 0 min 630 W/m 29,0 km/h (5 Bft) 97,87 %
01.08.2019 10:22 22,1 C 23,9 C 25,6 C 67 % 1017,2 hPa 0,0 l/m 2 min 0 min 491 W/m 29,0 km/h (5 Bft) 97,87 %
01.08.2019 10:24 22,1 C 23,9 C 25,0 C 67 % 1017,1 hPa 0,0 l/m 2 min 0 min 528 W/m 25,7 km/h (4 Bft) 95,74 %
01.08.2019 10:26 22,1 C 25,0 C 25,6 C 68 % 1017,1 hPa 0,0 l/m 2 min 0 min 658 W/m 16,1 km/h (3 Bft) 97,87 %
01.08.2019 10:28 22,1 C 25,6 C 26,7 C 68 % 1017,1 hPa 0,0 l/m 2 min 0 min 656 W/m 16,1 km/h (3 Bft) 97,83 %
01.08.2019 10:30 22,2 C 26,7 C 27,8 C 68 % 1017,1 hPa 0,0 l/m 2 min 0 min 662 W/m 16,1 km/h (3 Bft) 97,87 %
01.08.2019 10:32 22,2 C 26,7 C 27,8 C 68 % 1017,1 hPa 0,0 l/m 2 min 0 min 656 W/m 12,9 km/h (3 Bft) 97,87 %
01.08.2019 10:34 22,3 C 27,8 C 28,9 C 68 % 1017,0 hPa 0,0 l/m 2 min 0 min 683 W/m 16,1 km/h (3 Bft) 95,74 %
01.08.2019 10:36 22,4 C 26,1 C 26,7 C 68 % 1017,0 hPa 0,0 l/m 2 min 0 min 677 W/m 12,9 km/h (3 Bft) 95,74 %
01.08.2019 10:38 22,4 C 26,1 C 26,7 C 67 % 1017,1 hPa 0,0 l/m 2 min 0 min 682 W/m 12,9 km/h (3 Bft) 95,65 %
01.08.2019 10:40 22,5 C 26,7 C 27,2 C 67 % 1017,0 hPa 0,0 l/m 2 min 0 min 678 W/m 16,1 km/h (3 Bft) 95,74 %
01.08.2019 10:42 22,6 C 27,2 C 27,8 C 67 % 1017,0 hPa 0,0 l/m 2 min 0 min 698 W/m 12,9 km/h (3 Bft) 93,62 %
01.08.2019 10:44 22,7 C 27,8 C 28,9 C 67 % 1017,0 hPa 0,0 l/m 2 min 0 min 694 W/m 12,9 km/h (3 Bft) 95,74 %
01.08.2019 10:46 22,8 C 26,7 C 27,2 C 66 % 1017,1 hPa 0,0 l/m 2 min 0 min 707 W/m 9,7 km/h (2 Bft) 93,62 %
01.08.2019 10:48 22,9 C 27,8 C 28,3 C 67 % 1017,1 hPa 0,0 l/m 2 min 0 min 706 W/m 12,9 km/h (3 Bft) 97,87 %
01.08.2019 10:50 23,0 C 27,2 C 28,3 C 66 % 1017,1 hPa 0,0 l/m 2 min 0 min 697 W/m 9,7 km/h (2 Bft) 95,74 %
01.08.2019 10:52 23,1 C 27,8 C 28,9 C 66 % 1017,0 hPa 0,0 l/m 2 min 0 min 702 W/m 12,9 km/h (3 Bft) 97,83 %
01.08.2019 10:54 23,2 C 27,2 C 29,4 C 65 % 1017,1 hPa 0,0 l/m 2 min 0 min 715 W/m 22,5 km/h (4 Bft) 97,87 %
01.08.2019 10:56 23,3 C 27,2 C 28,3 C 64 % 1017,0 hPa 0,0 l/m 2 min 0 min 719 W/m 22,5 km/h (4 Bft) 95,74 %
01.08.2019 10:58 23,4 C 27,2 C 28,9 C 64 % 1017,1 hPa 0,0 l/m 2 min 0 min 722 W/m 22,5 km/h (4 Bft) 97,87 %
01.08.2019 11:00 23,4 C 26,7 C 28,3 C 64 % 1017,0 hPa 0,0 l/m 2 min 0 min 730 W/m 29,0 km/h (5 Bft) 97,87 %
01.08.2019 11:02 23,4 C 26,7 C 28,3 C 63 % 1017,1 hPa 0,0 l/m 2 min 0 min 730 W/m 29,0 km/h (5 Bft) 95,65 %
01.08.2019 11:04 23,5 C 26,1 C 27,8 C 63 % 1017,2 hPa 0,0 l/m 2 min 0 min 726 W/m 25,7 km/h (4 Bft) 93,62 %
01.08.2019 11:06 23,5 C 27,2 C 28,3 C 64 % 1017,0 hPa 0,0 l/m 2 min 0 min 730 W/m 19,3 km/h (3 Bft) 97,87 %
01.08.2019 11:08 23,6 C 27,2 C 28,3 C 63 % 1017,1 hPa 0,0 l/m 2 min 0 min 738 W/m 19,3 km/h (3 Bft) 97,87 %
01.08.2019 11:10 23,6 C 27,8 C 28,9 C 64 % 1017,0 hPa 0,0 l/m 2 min 0 min 740 W/m 12,9 km/h (3 Bft) 97,87 %
01.08.2019 11:12 23,7 C 27,2 C 28,9 C 63 % 1017,0 hPa 0,0 l/m 2 min 0 min 744 W/m 16,1 km/h (3 Bft) 97,87 %
01.08.2019 11:14 23,7 C 27,2 C 28,9 C 64 % 1017,1 hPa 0,0 l/m 2 min 0 min 748 W/m 25,7 km/h (4 Bft) 97,83 %
01.08.2019 11:16 23,8 C 26,1 C 28,3 C 62 % 1017,1 hPa 0,0 l/m 2 min 0 min 755 W/m 29,0 km/h (5 Bft) 100,00 %
01.08.2019 11:18 23,8 C 26,7 C 28,9 C 63 % 1017,1 hPa 0,0 l/m 2 min 0 min 761 W/m 19,3 km/h (3 Bft) 100,00 %
01.08.2019 11:20 23,8 C 27,2 C 28,9 C 62 % 1016,9 hPa 0,0 l/m 2 min 0 min 767 W/m 22,5 km/h (4 Bft) 100,00 %
01.08.2019 11:22 23,8 C 25,0 C 27,2 C 62 % 1017,0 hPa 0,0 l/m 2 min 0 min 785 W/m 22,5 km/h (4 Bft) 100,00 %
01.08.2019 11:24 23,8 C 26,7 C 28,3 C 62 % 1016,9 hPa 0,0 l/m 2 min 0 min 780 W/m 22,5 km/h (4 Bft) 100,00 %
01.08.2019 11:26 23,8 C 26,1 C 27,8 C 62 % 1016,9 hPa 0,0 l/m 2 min 0 min 771 W/m 22,5 km/h (4 Bft) 95,65 %
01.08.2019 11:28 23,9 C 27,2 C 27,8 C 62 % 1016,9 hPa 0,0 l/m 2 min 0 min 779 W/m 16,1 km/h (3 Bft) 100,00 %
01.08.2019 11:30 23,9 C 27,2 C 26,7 C 62 % 1017,0 hPa 0,0 l/m 2 min 0 min 715 W/m 19,3 km/h (3 Bft) 97,87 %
01.08.2019 11:32 23,9 C 27,8 C 27,2 C 62 % 1016,9 hPa 0,0 l/m 2 min 0 min 781 W/m 19,3 km/h (3 Bft) 100,00 %
01.08.2019 11:34 23,9 C 27,2 C 26,7 C 62 % 1016,9 hPa 0,0 l/m 2 min 0 min 790 W/m 19,3 km/h (3 Bft) 100,00 %
01.08.2019 11:36 24,0 C 27,8 C 26,1 C 62 % 1016,8 hPa 0,0 l/m 2 min 0 min 799 W/m 16,1 km/h (3 Bft) 100,00 %
01.08.2019 11:38 24,1 C 27,8 C 26,1 C 62 % 1016,8 hPa 0,0 l/m 2 min 0 min 826 W/m 16,1 km/h (3 Bft) 97,83 %
01.08.2019 11:40 24,1 C 27,8 C 25,6 C 61 % 1016,8 hPa 0,0 l/m 2 min 0 min 823 W/m 12,9 km/h (3 Bft) 100,00 %
01.08.2019 11:42 24,2 C 28,3 C 25,6 C 61 % 1016,8 hPa 0,0 l/m 2 min 0 min 809 W/m 12,9 km/h (3 Bft) 95,74 %
01.08.2019 11:44 24,3 C 29,4 C 26,1 C 62 % 1016,7 hPa 0,0 l/m 2 min 0 min 820 W/m 9,7 km/h (2 Bft) 100,00 %
01.08.2019 11:46 24,3 C 26,7 C 24,4 C 61 % 1016,8 hPa 0,0 l/m 2 min 0 min 768 W/m 19,3 km/h (3 Bft) 100,00 %
01.08.2019 11:48 24,3 C 27,8 C 25,0 C 61 % 1016,7 hPa 0,0 l/m 0 min 0 min 295 W/m 9,7 km/h (2 Bft) 100,00 %
01.08.2019 11:50 24,3 C 28,3 C 25,0 C 61 % 1016,8 hPa 0,0 l/m 2 min 0 min 826 W/m 16,1 km/h (3 Bft) 100,00 %
01.08.2019 11:52 24,4 C 28,9 C 25,0 C 61 % 1016,7 hPa 0,0 l/m 2 min 0 min 833 W/m 16,1 km/h (3 Bft) 100,00 %
01.08.2019 11:54 24,6 C 28,9 C 25,6 C 62 % 1016,7 hPa 0,0 l/m 2 min 0 min 842 W/m 19,3 km/h (3 Bft) 100,00 %
01.08.2019 11:56 24,6 C 28,9 C 25,6 C 61 % 1016,6 hPa 0,0 l/m 2 min 0 min 834 W/m 19,3 km/h (3 Bft) 97,87 %
01.08.2019 11:58 24,7 C 30,6 C 27,2 C 61 % 1016,7 hPa 0,0 l/m 2 min 0 min 848 W/m 6,4 km/h (2 Bft) 100,00 %
01.08.2019 12:00 24,9 C 31,1 C 26,7 C 61 % 1016,6 hPa 0,0 l/m 2 min 0 min 854 W/m 9,7 km/h (2 Bft) 100,00 %
01.08.2019 12:02 25,0 C 30,6 C 26,1 C 60 % 1016,8 hPa 0,0 l/m 2 min 0 min 883 W/m 19,3 km/h (3 Bft) 100,00 %
01.08.2019 12:04 25,1 C 29,4 C 25,6 C 59 % 1016,8 hPa 0,0 l/m 2 min 0 min 874 W/m 19,3 km/h (3 Bft) 100,00 %
01.08.2019 12:08 25,2 C 29,4 C 25,6 C 58 % 1016,7 hPa 0,0 l/m 4 min 0 min 898 W/m 25,7 km/h (4 Bft) 97,87 %
01.08.2019 12:10 25,3 C 28,9 C 26,7 C 59 % 1016,7 hPa 0,0 l/m 2 min 0 min 940 W/m 19,3 km/h (3 Bft) 100,00 %
01.08.2019 12:12 25,3 C 26,7 C 25,6 C 58 % 1016,7 hPa 0,0 l/m 2 min 0 min 480 W/m 19,3 km/h (3 Bft) 100,00 %
01.08.2019 12:14 25,2 C 26,1 C 25,6 C 59 % 1016,6 hPa 0,0 l/m 0 min 0 min 247 W/m 9,7 km/h (2 Bft) 97,87 %
01.08.2019 12:16 25,2 C 26,1 C 25,6 C 58 % 1016,6 hPa 0,0 l/m 0 min 0 min 248 W/m 12,9 km/h (3 Bft) 97,87 %
01.08.2019 12:18 25,2 C 26,7 C 25,0 C 58 % 1016,7 hPa 0,0 l/m 0 min 0 min 233 W/m 16,1 km/h (3 Bft) 95,74 %
01.08.2019 12:20 25,1 C 28,9 C 25,6 C 59 % 1016,6 hPa 0,0 l/m 2 min 0 min 804 W/m 16,1 km/h (3 Bft) 97,87 %
01.08.2019 12:22 25,1 C 28,3 C 26,1 C 59 % 1016,6 hPa 0,0 l/m 2 min 0 min 991 W/m 25,7 km/h (4 Bft) 97,87 %
01.08.2019 12:24 25,1 C 28,9 C 26,1 C 59 % 1016,5 hPa 0,0 l/m 2 min 0 min 988 W/m 19,3 km/h (3 Bft) 100,00 %
01.08.2019 12:26 25,2 C 28,9 C 26,1 C 58 % 1016,5 hPa 0,0 l/m 2 min 0 min 1005 W/m 22,5 km/h (4 Bft) 97,87 %
01.08.2019 12:28 25,2 C 30,6 C 27,8 C 59 % 1016,6 hPa 0,0 l/m 2 min 0 min 1022 W/m 12,9 km/h (3 Bft) 95,74 %
01.08.2019 12:30 25,2 C 27,8 C 26,7 C 58 % 1016,6 hPa 0,0 l/m 2 min 0 min 857 W/m 16,1 km/h (3 Bft) 100,00 %
01.08.2019 12:32 25,2 C 26,7 C 26,1 C 58 % 1016,5 hPa 0,0 l/m 0 min 0 min 291 W/m 19,3 km/h (3 Bft) 100,00 %
01.08.2019 12:34 25,2 C 25,6 C 25,6 C 58 % 1016,5 hPa 0,0 l/m 0 min 0 min 265 W/m 9,7 km/h (2 Bft) 100,00 %
01.08.2019 12:36 25,1 C 25,0 C 25,0 C 57 % 1016,4 hPa 0,0 l/m 0 min 0 min 246 W/m 9,7 km/h (2 Bft) 97,83 %
01.08.2019 12:38 25,1 C 25,6 C 25,0 C 58 % 1016,5 hPa 0,0 l/m 0 min 0 min 250 W/m 12,9 km/h (3 Bft) 97,87 %
01.08.2019 12:40 25,1 C 28,3 C 25,6 C 59 % 1016,5 hPa 0,0 l/m 2 min 0 min 640 W/m 9,7 km/h (2 Bft) 97,87 %
01.08.2019 12:42 25,1 C 27,2 C 25,6 C 57 % 1016,5 hPa 0,0 l/m 2 min 0 min 947 W/m 12,9 km/h (3 Bft) 95,74 %
01.08.2019 12:44 25,1 C 25,0 C 24,4 C 57 % 1016,6 hPa 0,0 l/m 0 min 0 min 259 W/m 9,7 km/h (2 Bft) 97,87 %
01.08.2019 12:46 25,0 C 24,4 C 24,4 C 57 % 1016,4 hPa 0,0 l/m 0 min 0 min 131 W/m 6,4 km/h (2 Bft) 97,87 %
01.08.2019 12:48 24,9 C 24,4 C 23,9 C 58 % 1016,5 hPa 0,0 l/m 0 min 0 min 171 W/m 9,7 km/h (2 Bft) 97,83 %
01.08.2019 12:50 24,8 C 27,8 C 24,4 C 59 % 1016,5 hPa 0,0 l/m 2 min 0 min 514 W/m 9,7 km/h (2 Bft) 95,74 %
01.08.2019 12:52 24,8 C 29,4 C 25,6 C 59 % 1016,5 hPa 0,0 l/m 2 min 0 min 968 W/m 16,1 km/h (3 Bft) 97,87 %
01.08.2019 12:54 24,9 C 28,9 C 25,6 C 59 % 1016,5 hPa 0,0 l/m 2 min 0 min 962 W/m 12,9 km/h (3 Bft) 97,87 %
01.08.2019 12:56 24,9 C 28,9 C 25,6 C 58 % 1016,6 hPa 0,0 l/m 2 min 0 min 796 W/m 12,9 km/h (3 Bft) 95,74 %
01.08.2019 12:58 25,0 C 27,2 C 25,0 C 58 % 1016,5 hPa 0,0 l/m 2 min 0 min 576 W/m 9,7 km/h (2 Bft) 97,87 %
01.08.2019 13:00 25,0 C 25,6 C 24,4 C 57 % 1016,4 hPa 0,0 l/m 0 min 0 min 194 W/m 16,1 km/h (3 Bft) 97,83 %
01.08.2019 13:02 24,9 C 27,2 C 24,4 C 58 % 1016,4 hPa 0,0 l/m 0 min 0 min 375 W/m 12,9 km/h (3 Bft) 95,74 %
01.08.2019 13:04 24,9 C 26,7 C 25,0 C 58 % 1016,4 hPa 0,0 l/m 2 min 0 min 540 W/m 12,9 km/h (3 Bft) 97,87 %
01.08.2019 13:06 24,9 C 25,6 C 25,0 C 58 % 1016,4 hPa 0,0 l/m 0 min 0 min 190 W/m 12,9 km/h (3 Bft) 91,49 %
01.08.2019 13:08 24,8 C 25,0 C 24,4 C 58 % 1016,4 hPa 0,0 l/m 0 min 0 min 200 W/m 9,7 km/h (2 Bft) 93,62 %
01.08.2019 13:10 24,8 C 26,1 C 25,6 C 59 % 1016,4 hPa 0,0 l/m 0 min 0 min 221 W/m 12,9 km/h (3 Bft) 93,48 %
01.08.2019 13:12 24,8 C 26,1 C 26,1 C 59 % 1016,4 hPa 0,0 l/m 0 min 0 min 233 W/m 9,7 km/h (2 Bft) 93,62 %
01.08.2019 13:14 24,8 C 25,0 C 25,0 C 58 % 1016,4 hPa 0,0 l/m 0 min 0 min 277 W/m 29,0 km/h (5 Bft) 93,62 %
01.08.2019 13:16 24,7 C 25,6 C 25,6 C 57 % 1016,4 hPa 0,0 l/m 0 min 0 min 308 W/m 16,1 km/h (3 Bft) 93,62 %
01.08.2019 13:18 24,7 C 27,8 C 27,8 C 58 % 1016,4 hPa 0,0 l/m 0 min 0 min 323 W/m 6,4 km/h (2 Bft) 93,62 %
01.08.2019 13:20 24,8 C 28,3 C 28,3 C 58 % 1016,5 hPa 0,0 l/m 0 min 0 min 323 W/m 9,7 km/h (2 Bft) 91,49 %
01.08.2019 13:22 24,8 C 26,7 C 26,7 C 58 % 1016,4 hPa 0,0 l/m 0 min 0 min 323 W/m 12,9 km/h (3 Bft) 91,30 %
01.08.2019 13:24 24,8 C 25,6 C 25,6 C 58 % 1016,4 hPa 0,0 l/m 0 min 0 min 225 W/m 22,5 km/h (4 Bft) 91,49 %
01.08.2019 13:26 24,8 C 25,0 C 24,4 C 58 % 1016,5 hPa 0,0 l/m 0 min 0 min 178 W/m 12,9 km/h (3 Bft) 91,49 %
01.08.2019 13:28 24,7 C 25,0 C 25,0 C 58 % 1016,6 hPa 0,0 l/m 0 min 0 min 182 W/m 19,3 km/h (3 Bft) 91,49 %
01.08.2019 13:30 24,7 C 27,8 C 27,8 C 59 % 1016,4 hPa 0,0 l/m 0 min 0 min 188 W/m 9,7 km/h (2 Bft) 93,62 %
01.08.2019 13:32 24,8 C 29,4 C 29,4 C 59 % 1016,4 hPa 0,0 l/m 2 min 0 min 915 W/m 12,9 km/h (3 Bft) 93,62 %
01.08.2019 13:34 24,8 C 29,4 C 30,0 C 59 % 1016,4 hPa 0,0 l/m 2 min 0 min 990 W/m 12,9 km/h (3 Bft) 93,48 %
01.08.2019 13:36 24,9 C 26,7 C 27,8 C 58 % 1016,4 hPa 0,0 l/m 0 min 0 min 397 W/m 19,3 km/h (3 Bft) 93,62 %
01.08.2019 13:38 24,9 C 25,6 C 25,6 C 58 % 1016,5 hPa 0,0 l/m 0 min 0 min 222 W/m 16,1 km/h (3 Bft) 95,74 %
01.08.2019 13:40 24,8 C 24,4 C 25,0 C 58 % 1016,5 hPa 0,0 l/m 0 min 0 min 233 W/m 16,1 km/h (3 Bft) 93,62 %
01.08.2019 13:42 24,8 C 25,6 C 25,6 C 58 % 1016,5 hPa 0,0 l/m 0 min 0 min 285 W/m 19,3 km/h (3 Bft) 95,74 %
01.08.2019 13:44 24,8 C 24,4 C 25,0 C 58 % 1016,4 hPa 0,0 l/m 0 min 0 min 255 W/m 19,3 km/h (3 Bft) 95,74 %
01.08.2019 13:46 24,7 C 24,4 C 24,4 C 58 % 1016,5 hPa 0,0 l/m 0 min 0 min 218 W/m 12,9 km/h (3 Bft) 97,83 %
01.08.2019 13:48 24,7 C 23,9 C 24,4 C 58 % 1016,5 hPa 0,0 l/m 0 min 0 min 216 W/m 16,1 km/h (3 Bft) 97,87 %
01.08.2019 13:50 24,7 C 24,4 C 24,4 C 59 % 1016,4 hPa 0,0 l/m 0 min 0 min 240 W/m 9,7 km/h (2 Bft) 95,74 %
01.08.2019 13:52 24,6 C 24,4 C 24,4 C 59 % 1016,4 hPa 0,0 l/m 0 min 0 min 250 W/m 16,1 km/h (3 Bft) 97,87 %
01.08.2019 13:54 24,6 C 25,0 C 24,4 C 59 % 1016,4 hPa 0,0 l/m 0 min 0 min 240 W/m 12,9 km/h (3 Bft) 97,87 %
01.08.2019 13:56 24,5 C 24,4 C 24,4 C 58 % 1016,5 hPa 0,0 l/m 0 min 0 min 211 W/m 16,1 km/h (3 Bft) 97,83 %
01.08.2019 13:58 24,4 C 23,9 C 23,9 C 58 % 1016,5 hPa 0,0 l/m 0 min 0 min 183 W/m 19,3 km/h (3 Bft) 95,74 %
01.08.2019 14:00 24,4 C 23,3 C 23,3 C 58 % 1016,5 hPa 0,0 l/m 0 min 0 min 153 W/m 19,3 km/h (3 Bft) 100,00 %
01.08.2019 14:02 24,3 C 23,3 C 23,3 C 59 % 1016,5 hPa 0,0 l/m 0 min 0 min 163 W/m 16,1 km/h (3 Bft) 100,00 %
01.08.2019 14:04 24,2 C 23,3 C 23,3 C 59 % 1016,6 hPa 0,0 l/m 0 min 0 min 158 W/m 12,9 km/h (3 Bft) 100,00 %
01.08.2019 14:06 24,2 C 23,3 C 23,3 C 59 % 1016,4 hPa 0,0 l/m 0 min 0 min 160 W/m 16,1 km/h (3 Bft) 100,00 %
01.08.2019 14:08 24,1 C 23,9 C 23,3 C 59 % 1016,6 hPa 0,0 l/m 0 min 0 min 192 W/m 12,9 km/h (3 Bft) 97,83 %
01.08.2019 14:10 24,1 C 25,0 C 25,0 C 60 % 1016,5 hPa 0,0 l/m 0 min 0 min 238 W/m 16,1 km/h (3 Bft) 100,00 %
01.08.2019 14:12 24,1 C 28,3 C 28,3 C 61 % 1016,4 hPa 0,0 l/m 2 min 0 min 559 W/m 9,7 km/h (2 Bft) 100,00 %
01.08.2019 14:14 24,2 C 30,0 C 30,0 C 60 % 1016,4 hPa 0,0 l/m 2 min 0 min 1021 W/m 19,3 km/h (3 Bft) 100,00 %
01.08.2019 14:16 24,4 C 30,6 C 30,0 C 60 % 1016,6 hPa 0,0 l/m 2 min 0 min 1015 W/m 12,9 km/h (3 Bft) 95,74 %
01.08.2019 14:18 24,5 C 30,0 C 30,6 C 60 % 1016,4 hPa 0,0 l/m 2 min 0 min 1012 W/m 16,1 km/h (3 Bft) 100,00 %
01.08.2019 14:20 24,7 C 27,8 C 28,3 C 59 % 1016,5 hPa 0,0 l/m 2 min 0 min 1014 W/m 25,7 km/h (4 Bft) 100,00 %
01.08.2019 14:22 24,7 C 26,7 C 26,7 C 59 % 1016,5 hPa 0,0 l/m 2 min 0 min 474 W/m 16,1 km/h (3 Bft) 100,00 %
01.08.2019 14:24 24,8 C 28,3 C 28,3 C 59 % 1016,5 hPa 0,0 l/m 2 min 0 min 607 W/m 12,9 km/h (3 Bft) 100,00 %
01.08.2019 14:26 24,9 C 29,4 C 30,0 C 60 % 1016,3 hPa 0,0 l/m 2 min 0 min 1062 W/m 9,7 km/h (2 Bft) 100,00 %
01.08.2019 14:28 25,1 C 27,8 C 27,8 C 58 % 1016,5 hPa 0,0 l/m 2 min 0 min 506 W/m 22,5 km/h (4 Bft) 100,00 %
01.08.2019 14:30 25,1 C 27,2 C 27,2 C 58 % 1016,4 hPa 0,0 l/m 0 min 0 min 222 W/m 6,4 km/h (2 Bft) 100,00 %
01.08.2019 14:32 25,1 C 25,6 C 26,1 C 58 % 1016,4 hPa 0,0 l/m 0 min 0 min 144 W/m 16,1 km/h (3 Bft) 100,00 %
01.08.2019 14:34 25,1 C 25,0 C 25,0 C 57 % 1016,4 hPa 0,0 l/m 0 min 0 min 105 W/m 9,7 km/h (2 Bft) 100,00 %
01.08.2019 14:36 25,1 C 23,9 C 24,4 C 57 % 1016,4 hPa 0,0 l/m 0 min 0 min 80 W/m 16,1 km/h (3 Bft) 100,00 %
01.08.2019 14:38 25,1 C 23,3 C 23,9 C 57 % 1016,5 hPa 0,0 l/m 0 min 0 min 64 W/m 19,3 km/h (3 Bft) 100,00 %
01.08.2019 14:40 24,9 C 23,3 C 23,3 C 57 % 1016,5 hPa 0,0 l/m 0 min 0 min 55 W/m 12,9 km/h (3 Bft) 100,00 %
01.08.2019 14:42 24,8 C 22,8 C 23,3 C 58 % 1016,5 hPa 0,0 l/m 0 min 0 min 54 W/m 12,9 km/h (3 Bft) 100,00 %
01.08.2019 14:44 24,7 C 22,8 C 23,3 C 58 % 1016,4 hPa 0,0 l/m 0 min 0 min 58 W/m 9,7 km/h (2 Bft) 100,00 %
01.08.2019 14:46 24,6 C 22,8 C 22,8 C 58 % 1016,5 hPa 0,0 l/m 0 min 0 min 62 W/m 16,1 km/h (3 Bft) 100,00 %
01.08.2019 14:48 24,4 C 22,8 C 22,8 C 58 % 1016,5 hPa 0,0 l/m 0 min 0 min 66 W/m 9,7 km/h (2 Bft) 100,00 %
01.08.2019 14:50 24,3 C 22,8 C 22,8 C 58 % 1016,5 hPa 0,0 l/m 0 min 0 min 70 W/m 9,7 km/h (2 Bft) 97,87 %
01.08.2019 14:52 24,2 C 22,8 C 22,8 C 59 % 1016,4 hPa 0,0 l/m 0 min 0 min 76 W/m 9,7 km/h (2 Bft) 100,00 %
01.08.2019 14:54 24,1 C 22,8 C 22,8 C 59 % 1016,5 hPa 0,0 l/m 0 min 0 min 80 W/m 6,4 km/h (2 Bft) 100,00 %
01.08.2019 14:56 24,1 C 22,8 C 22,8 C 60 % 1016,5 hPa 0,0 l/m 0 min 0 min 86 W/m 9,7 km/h (2 Bft) 100,00 %
01.08.2019 14:58 23,9 C 22,8 C 22,8 C 60 % 1016,5 hPa 0,0 l/m 0 min 0 min 92 W/m 6,4 km/h (2 Bft) 100,00 %
01.08.2019 15:00 23,8 C 22,8 C 22,8 C 60 % 1016,5 hPa 0,0 l/m 0 min 0 min 99 W/m 12,9 km/h (3 Bft) 100,00 %
01.08.2019 15:02 23,8 C 22,8 C 22,8 C 60 % 1016,4 hPa 0,0 l/m 0 min 0 min 108 W/m 9,7 km/h (2 Bft) 100,00 %
01.08.2019 15:04 23,7 C 22,8 C 22,8 C 61 % 1016,5 hPa 0,0 l/m 0 min 0 min 121 W/m 6,4 km/h (2 Bft) 100,00 %
01.08.2019 15:06 23,7 C 22,8 C 22,8 C 61 % 1016,4 hPa 0,0 l/m 0 min 0 min 140 W/m 6,4 km/h (2 Bft) 100,00 %
01.08.2019 15:08 23,6 C 22,8 C 22,8 C 61 % 1016,4 hPa 0,0 l/m 0 min 0 min 167 W/m 16,1 km/h (3 Bft) 100,00 %
01.08.2019 15:10 23,6 C 23,3 C 22,8 C 61 % 1016,5 hPa 0,0 l/m 0 min 0 min 196 W/m 6,4 km/h (2 Bft) 100,00 %
01.08.2019 15:12 23,6 C 23,9 C 23,3 C 62 % 1016,6 hPa 0,0 l/m 0 min 0 min 224 W/m 6,4 km/h (2 Bft) 97,87 %
01.08.2019 15:14 23,5 C 23,9 C 23,3 C 62 % 1016,5 hPa 0,0 l/m 0 min 0 min 252 W/m 9,7 km/h (2 Bft) 100,00 %
01.08.2019 15:16 23,6 C 24,4 C 23,3 C 62 % 1016,5 hPa 0,0 l/m 0 min 0 min 297 W/m 9,7 km/h (2 Bft) 100,00 %
01.08.2019 15:18 23,6 C 25,0 C 23,9 C 62 % 1016,4 hPa 0,0 l/m 0 min 0 min 330 W/m 9,7 km/h (2 Bft) 100,00 %
01.08.2019 15:20 23,6 C 25,0 C 24,4 C 62 % 1016,4 hPa 0,0 l/m 0 min 0 min 356 W/m 6,4 km/h (2 Bft) 97,87 %
01.08.2019 15:22 23,6 C 25,6 C 24,4 C 61 % 1016,3 hPa 0,0 l/m 2 min 0 min 380 W/m 12,9 km/h (3 Bft) 100,00 %
01.08.2019 15:24 23,7 C 26,1 C 24,4 C 62 % 1016,4 hPa 0,0 l/m 2 min 0 min 385 W/m 6,4 km/h (2 Bft) 100,00 %
01.08.2019 15:26 23,7 C 26,7 C 25,0 C 62 % 1016,3 hPa 0,0 l/m 2 min 0 min 398 W/m 6,4 km/h (2 Bft) 100,00 %
01.08.2019 15:28 23,8 C 26,7 C 25,0 C 61 % 1016,3 hPa 0,0 l/m 2 min 0 min 468 W/m 9,7 km/h (2 Bft) 100,00 %
01.08.2019 15:30 23,9 C 28,3 C 25,6 C 61 % 1016,3 hPa 0,0 l/m 2 min 0 min 479 W/m 12,9 km/h (3 Bft) 100,00 %
01.08.2019 15:32 24,0 C 30,0 C 25,6 C 61 % 1016,2 hPa 0,0 l/m 2 min 0 min 868 W/m 16,1 km/h (3 Bft) 100,00 %
01.08.2019 15:34 24,2 C 31,7 C 26,1 C 60 % 1016,3 hPa 0,0 l/m 2 min 0 min 968 W/m 12,9 km/h (3 Bft) 100,00 %
01.08.2019 15:36 24,4 C 32,2 C 26,1 C 60 % 1016,3 hPa 0,0 l/m 2 min 0 min 965 W/m 12,9 km/h (3 Bft) 93,62 %
01.08.2019 15:38 24,6 C 31,1 C 26,1 C 59 % 1016,2 hPa 0,0 l/m 2 min 0 min 957 W/m 9,7 km/h (2 Bft) 97,87 %
01.08.2019 15:40 24,7 C 30,0 C 25,6 C 59 % 1016,2 hPa 0,0 l/m 2 min 0 min 758 W/m 12,9 km/h (3 Bft) 97,87 %
01.08.2019 15:42 24,9 C 28,3 C 25,6 C 58 % 1016,2 hPa 0,0 l/m 2 min 0 min 468 W/m 16,1 km/h (3 Bft) 91,30 %
01.08.2019 15:44 25,0 C 27,8 C 25,6 C 58 % 1016,1 hPa 0,0 l/m 0 min 0 min 280 W/m 3,2 km/h (1 Bft) 97,87 %
01.08.2019 15:46 25,1 C 26,7 C 25,6 C 58 % 1016,2 hPa 0,0 l/m 0 min 0 min 277 W/m 9,7 km/h (2 Bft) 95,74 %
01.08.2019 15:48 25,1 C 26,7 C 25,6 C 59 % 1016,1 hPa 0,0 l/m 0 min 0 min 324 W/m 9,7 km/h (2 Bft) 97,87 %
01.08.2019 15:50 25,1 C 26,7 C 25,6 C 58 % 1016,1 hPa 0,0 l/m 2 min 0 min 374 W/m 9,7 km/h (2 Bft) 95,74 %
01.08.2019 15:52 25,2 C 27,2 C 25,6 C 58 % 1016,1 hPa 0,0 l/m 2 min 0 min 392 W/m 6,4 km/h (2 Bft) 95,74 %
01.08.2019 15:54 25,3 C 28,3 C 26,1 C 58 % 1016,1 hPa 0,0 l/m 2 min 0 min 418 W/m 9,7 km/h (2 Bft) 97,83 %
01.08.2019 15:56 25,3 C 27,2 C 25,6 C 57 % 1016,2 hPa 0,0 l/m 2 min 0 min 426 W/m 19,3 km/h (3 Bft) 97,87 %
01.08.2019 15:58 25,3 C 26,7 C 25,6 C 57 % 1016,1 hPa 0,0 l/m 2 min 0 min 363 W/m 12,9 km/h (3 Bft) 93,62 %
01.08.2019 16:00 25,3 C 27,8 C 25,6 C 57 % 1016,1 hPa 0,0 l/m 2 min 0 min 438 W/m 9,7 km/h (2 Bft) 95,74 %
01.08.2019 16:02 25,3 C 27,8 C 25,6 C 57 % 1016,1 hPa 0,0 l/m 2 min 0 min 435 W/m 12,9 km/h (3 Bft) 95,74 %
01.08.2019 16:04 25,4 C 27,8 C 25,6 C 57 % 1016,1 hPa 0,0 l/m 2 min 0 min 350 W/m 9,7 km/h (2 Bft) 95,74 %
01.08.2019 16:06 25,4 C 28,3 C 26,1 C 57 % 1016,1 hPa 0,0 l/m 2 min 0 min 418 W/m 9,7 km/h (2 Bft) 93,48 %
01.08.2019 16:08 25,5 C 29,4 C 26,1 C 57 % 1016,1 hPa 0,0 l/m 2 min 0 min 642 W/m 9,7 km/h (2 Bft) 95,74 %
01.08.2019 16:10 25,5 C 28,3 C 26,1 C 56 % 1016,1 hPa 0,0 l/m 2 min 0 min 828 W/m 16,1 km/h (3 Bft) 95,74 %
01.08.2019 16:12 25,6 C 27,8 C 25,6 C 57 % 1016,0 hPa 0,0 l/m 0 min 0 min 239 W/m 6,4 km/h (2 Bft) 95,74 %
01.08.2019 16:14 25,7 C 29,4 C 26,1 C 58 % 1016,0 hPa 0,0 l/m 2 min 0 min 495 W/m 6,4 km/h (2 Bft) 93,62 %
01.08.2019 16:16 25,8 C 31,1 C 26,7 C 57 % 1016,1 hPa 0,0 l/m 2 min 0 min 932 W/m 12,9 km/h (3 Bft) 91,30 %
01.08.2019 16:18 25,9 C 31,7 C 26,7 C 56 % 1016,1 hPa 0,0 l/m 2 min 0 min 927 W/m 6,4 km/h (2 Bft) 93,62 %
01.08.2019 16:20 26,1 C 31,7 C 27,2 C 55 % 1015,9 hPa 0,0 l/m 2 min 0 min 924 W/m 9,7 km/h (2 Bft) 95,74 %
01.08.2019 16:22 26,2 C 31,7 C 27,2 C 53 % 1015,9 hPa 0,0 l/m 2 min 0 min 907 W/m 25,7 km/h (4 Bft) 93,62 %
01.08.2019 16:24 26,3 C 31,1 C 27,2 C 52 % 1015,9 hPa 0,0 l/m 2 min 0 min 895 W/m 16,1 km/h (3 Bft) 95,74 %
01.08.2019 16:26 26,4 C 31,7 C 27,2 C 52 % 1016,1 hPa 0,0 l/m 2 min 0 min 880 W/m 12,9 km/h (3 Bft) 93,62 %
01.08.2019 16:28 26,6 C 31,1 C 27,2 C 52 % 1016,0 hPa 0,0 l/m 2 min 0 min 876 W/m 12,9 km/h (3 Bft) 95,65 %
01.08.2019 16:30 26,7 C 31,1 C 27,2 C 52 % 1015,9 hPa 0,0 l/m 2 min 0 min 804 W/m 12,9 km/h (3 Bft) 95,74 %
01.08.2019 16:32 26,8 C 29,4 C 26,7 C 50 % 1016,0 hPa 0,0 l/m 2 min 0 min 539 W/m 16,1 km/h (3 Bft) 91,49 %
01.08.2019 16:34 26,8 C 28,3 C 26,1 C 50 % 1015,9 hPa 0,0 l/m 2 min 0 min 335 W/m 16,1 km/h (3 Bft) 95,74 %
01.08.2019 16:36 26,8 C 30,0 C 26,7 C 50 % 1015,9 hPa 0,0 l/m 2 min 0 min 634 W/m 19,3 km/h (3 Bft) 97,87 %
01.08.2019 16:38 26,8 C 30,0 C 26,7 C 51 % 1015,9 hPa 0,0 l/m 2 min 0 min 788 W/m 9,7 km/h (2 Bft) 95,74 %
01.08.2019 16:40 26,8 C 28,9 C 26,1 C 52 % 1016,1 hPa 0,0 l/m 2 min 0 min 525 W/m 9,7 km/h (2 Bft) 95,65 %
01.08.2019 16:42 26,8 C 27,8 C 26,1 C 51 % 1016,0 hPa 0,0 l/m 0 min 0 min 254 W/m 12,9 km/h (3 Bft) 95,74 %
01.08.2019 16:44 26,8 C 27,2 C 25,6 C 52 % 1016,0 hPa 0,0 l/m 0 min 0 min 303 W/m 9,7 km/h (2 Bft) 93,62 %
01.08.2019 16:46 26,7 C 26,7 C 25,6 C 52 % 1015,9 hPa 0,0 l/m 0 min 0 min 277 W/m 6,4 km/h (2 Bft) 95,74 %
01.08.2019 16:48 26,7 C 26,7 C 25,6 C 53 % 1015,9 hPa 0,0 l/m 0 min 0 min 207 W/m 9,7 km/h (2 Bft) 95,74 %
01.08.2019 16:50 26,6 C 26,1 C 25,0 C 53 % 1015,9 hPa 0,0 l/m 0 min 0 min 186 W/m 6,4 km/h (2 Bft) 93,62 %
01.08.2019 16:52 26,5 C 25,6 C 25,0 C 53 % 1015,9 hPa 0,0 l/m 0 min 0 min 168 W/m 12,9 km/h (3 Bft) 95,65 %
01.08.2019 16:54 26,4 C 25,6 C 25,0 C 53 % 1015,9 hPa 0,0 l/m 0 min 0 min 145 W/m 6,4 km/h (2 Bft) 95,74 %
01.08.2019 16:56 26,3 C 25,0 C 25,0 C 54 % 1015,9 hPa 0,0 l/m 0 min 0 min 127 W/m 9,7 km/h (2 Bft) 97,87 %
01.08.2019 16:58 26,2 C 25,0 C 24,4 C 55 % 1015,9 hPa 0,0 l/m 0 min 0 min 116 W/m 6,4 km/h (2 Bft) 97,87 %
01.08.2019 17:00 26,2 C 25,0 C 24,4 C 55 % 1015,9 hPa 0,0 l/m 0 min 0 min 115 W/m 9,7 km/h (2 Bft) 97,87 %
01.08.2019 17:02 26,1 C 24,4 C 23,9 C 55 % 1015,9 hPa 0,0 l/m 0 min 0 min 119 W/m 6,4 km/h (2 Bft) 93,62 %
01.08.2019 17:04 25,9 C 24,4 C 23,9 C 55 % 1015,9 hPa 0,0 l/m 0 min 0 min 123 W/m 6,4 km/h (2 Bft) 97,83 %
01.08.2019 17:06 25,8 C 24,4 C 23,9 C 56 % 1015,8 hPa 0,0 l/m 0 min 0 min 128 W/m 9,7 km/h (2 Bft) 95,74 %
01.08.2019 17:08 25,7 C 24,4 C 23,9 C 56 % 1015,9 hPa 0,0 l/m 0 min 0 min 129 W/m 6,4 km/h (2 Bft) 97,87 %
01.08.2019 17:10 25,6 C 24,4 C 23,9 C 56 % 1015,9 hPa 0,0 l/m 0 min 0 min 136 W/m 6,4 km/h (2 Bft) 97,87 %
01.08.2019 17:12 25,6 C 25,0 C 23,9 C 57 % 1015,9 hPa 0,0 l/m 0 min 0 min 145 W/m 6,4 km/h (2 Bft) 100,00 %
01.08.2019 17:14 25,5 C 25,0 C 23,9 C 57 % 1015,9 hPa 0,0 l/m 0 min 0 min 141 W/m 6,4 km/h (2 Bft) 100,00 %
01.08.2019 17:16 25,4 C 24,4 C 23,9 C 57 % 1015,9 hPa 0,0 l/m 0 min 0 min 144 W/m 6,4 km/h (2 Bft) 100,00 %
01.08.2019 17:18 25,3 C 24,4 C 23,9 C 57 % 1015,9 hPa 0,0 l/m 0 min 0 min 148 W/m 6,4 km/h (2 Bft) 97,87 %
01.08.2019 17:20 25,3 C 24,4 C 23,9 C 58 % 1015,9 hPa 0,0 l/m 0 min 0 min 144 W/m 6,4 km/h (2 Bft) 100,00 %
01.08.2019 17:22 25,2 C 24,4 C 23,9 C 58 % 1015,9 hPa 0,0 l/m 0 min 0 min 125 W/m 3,2 km/h (1 Bft) 100,00 %
01.08.2019 17:24 25,2 C 24,4 C 23,9 C 59 % 1015,8 hPa 0,0 l/m 0 min 0 min 105 W/m 6,4 km/h (2 Bft) 100,00 %
01.08.2019 17:26 25,1 C 24,4 C 23,3 C 58 % 1015,9 hPa 0,0 l/m 0 min 0 min 87 W/m 6,4 km/h (2 Bft) 100,00 %
01.08.2019 17:28 25,1 C 23,9 C 23,3 C 59 % 1015,9 hPa 0,0 l/m 0 min 0 min 74 W/m 3,2 km/h (1 Bft) 100,00 %
01.08.2019 17:30 25,0 C 23,9 C 23,3 C 58 % 1015,8 hPa 0,0 l/m 0 min 2 min 70 W/m 6,4 km/h (2 Bft) 100,00 %
01.08.2019 17:32 24,9 C 22,8 C 22,8 C 59 % 1015,9 hPa 0,0 l/m 0 min 2 min 74 W/m 3,2 km/h (1 Bft) 100,00 %
01.08.2019 17:34 24,9 C 22,8 C 22,8 C 59 % 1015,9 hPa 0,0 l/m 0 min 0 min 87 W/m 9,7 km/h (2 Bft) 100,00 %
01.08.2019 17:36 24,8 C 23,3 C 23,3 C 59 % 1015,8 hPa 0,0 l/m 0 min 0 min 107 W/m 3,2 km/h (1 Bft) 100,00 %
01.08.2019 17:38 24,8 C 23,3 C 23,3 C 59 % 1015,7 hPa 0,0 l/m 0 min 0 min 136 W/m 6,4 km/h (2 Bft) 100,00 %
01.08.2019 17:40 24,7 C 23,9 C 23,3 C 59 % 1015,8 hPa 0,0 l/m 0 min 0 min 190 W/m 3,2 km/h (1 Bft) 100,00 %
01.08.2019 17:42 24,7 C 25,0 C 23,3 C 59 % 1015,8 hPa 0,0 l/m 0 min 0 min 235 W/m 12,9 km/h (3 Bft) 100,00 %
01.08.2019 17:44 24,7 C 25,0 C 23,9 C 59 % 1015,8 hPa 0,0 l/m 0 min 0 min 252 W/m 6,4 km/h (2 Bft) 100,00 %
01.08.2019 17:46 24,7 C 25,6 C 23,9 C 60 % 1015,8 hPa 0,0 l/m 0 min 0 min 235 W/m 6,4 km/h (2 Bft) 100,00 %
01.08.2019 17:48 24,7 C 25,6 C 23,9 C 60 % 1015,8 hPa 0,0 l/m 0 min 0 min 230 W/m 6,4 km/h (2 Bft) 100,00 %
01.08.2019 17:50 24,7 C 25,6 C 23,9 C 61 % 1015,8 hPa 0,0 l/m 0 min 0 min 230 W/m 6,4 km/h (2 Bft) 100,00 %
01.08.2019 17:52 24,7 C 25,6 C 23,9 C 60 % 1015,7 hPa 0,0 l/m 0 min 0 min 229 W/m 9,7 km/h (2 Bft) 100,00 %
01.08.2019 17:54 24,7 C 25,6 C 24,4 C 60 % 1015,7 hPa 0,0 l/m 0 min 0 min 223 W/m 6,4 km/h (2 Bft) 100,00 %
01.08.2019 17:56 24,7 C 25,6 C 24,4 C 60 % 1015,7 hPa 0,0 l/m 0 min 0 min 221 W/m 6,4 km/h (2 Bft) 100,00 %
01.08.2019 17:58 24,7 C 25,6 C 24,4 C 60 % 1015,7 hPa 0,0 l/m 2 min 0 min 270 W/m 19,3 km/h (3 Bft) 100,00 %
01.08.2019 18:00 24,7 C 26,1 C 24,4 C 60 % 1015,7 hPa 0,0 l/m 2 min 0 min 241 W/m 9,7 km/h (2 Bft) 100,00 %
01.08.2019 18:02 24,8 C 26,1 C 24,4 C 61 % 1015,7 hPa 0,0 l/m 2 min 0 min 241 W/m 3,2 km/h (1 Bft) 100,00 %
01.08.2019 18:04 24,8 C 26,1 C 24,4 C 60 % 1015,7 hPa 0,0 l/m 0 min 0 min 220 W/m 3,2 km/h (1 Bft) 100,00 %
01.08.2019 18:08 24,8 C 26,1 C 24,4 C 59 % 1015,7 hPa 0,0 l/m 4 min 0 min 259 W/m 9,7 km/h (2 Bft) 100,00 %
01.08.2019 18:10 24,8 C 26,1 C 24,4 C 59 % 1015,7 hPa 0,0 l/m 2 min 0 min 263 W/m 9,7 km/h (2 Bft) 97,87 %
01.08.2019 18:12 24,9 C 26,1 C 24,4 C 60 % 1015,7 hPa 0,0 l/m 2 min 0 min 256 W/m 9,7 km/h (2 Bft) 97,87 %
01.08.2019 18:14 24,9 C 25,6 C 24,4 C 60 % 1015,7 hPa 0,0 l/m 2 min 0 min 245 W/m 12,9 km/h (3 Bft) 97,83 %
01.08.2019 18:16 24,9 C 25,6 C 24,4 C 61 % 1015,7 hPa 0,0 l/m 2 min 0 min 240 W/m 19,3 km/h (3 Bft) 97,87 %
01.08.2019 18:18 24,9 C 25,0 C 23,9 C 61 % 1015,7 hPa 0,0 l/m 2 min 0 min 239 W/m 16,1 km/h (3 Bft) 95,74 %
01.08.2019 18:20 24,8 C 25,6 C 23,9 C 62 % 1015,7 hPa 0,0 l/m 2 min 0 min 240 W/m 9,7 km/h (2 Bft) 97,87 %
01.08.2019 18:22 24,8 C 25,6 C 23,9 C 61 % 1015,6 hPa 0,0 l/m 2 min 0 min 266 W/m 12,9 km/h (3 Bft) 97,87 %
01.08.2019 18:24 24,8 C 25,0 C 23,9 C 62 % 1015,7 hPa 0,0 l/m 2 min 0 min 237 W/m 12,9 km/h (3 Bft) 97,87 %
01.08.2019 18:26 24,8 C 25,0 C 23,9 C 62 % 1015,7 hPa 0,0 l/m 2 min 0 min 218 W/m 9,7 km/h (2 Bft) 97,83 %
01.08.2019 18:28 24,7 C 25,0 C 23,9 C 63 % 1015,7 hPa 0,0 l/m 2 min 0 min 218 W/m 12,9 km/h (3 Bft) 95,74 %
01.08.2019 18:30 24,7 C 25,0 C 23,3 C 64 % 1015,7 hPa 0,0 l/m 2 min 0 min 204 W/m 6,4 km/h (2 Bft) 97,87 %
01.08.2019 18:32 24,7 C 25,0 C 23,3 C 63 % 1015,7 hPa 0,0 l/m 2 min 0 min 260 W/m 16,1 km/h (3 Bft) 97,87 %
01.08.2019 18:34 24,7 C 25,0 C 23,3 C 64 % 1015,7 hPa 0,0 l/m 2 min 0 min 281 W/m 9,7 km/h (2 Bft) 95,74 %
01.08.2019 18:36 24,7 C 25,0 C 23,3 C 64 % 1015,7 hPa 0,0 l/m 2 min 0 min 212 W/m 6,4 km/h (2 Bft) 97,83 %
01.08.2019 18:38 24,6 C 25,0 C 23,3 C 64 % 1015,7 hPa 0,0 l/m 2 min 0 min 218 W/m 9,7 km/h (2 Bft) 97,87 %
01.08.2019 18:40 24,6 C 25,0 C 23,3 C 64 % 1015,7 hPa 0,0 l/m 2 min 0 min 195 W/m 6,4 km/h (2 Bft) 95,74 %
01.08.2019 18:42 24,6 C 25,0 C 23,3 C 63 % 1015,7 hPa 0,0 l/m 0 min 0 min 174 W/m 16,1 km/h (3 Bft) 97,87 %
01.08.2019 18:44 24,5 C 24,4 C 23,3 C 63 % 1015,7 hPa 0,0 l/m 0 min 0 min 162 W/m 6,4 km/h (2 Bft) 97,87 %
01.08.2019 18:46 24,4 C 24,4 C 23,3 C 63 % 1015,7 hPa 0,0 l/m 0 min 0 min 158 W/m 6,4 km/h (2 Bft) 95,74 %
01.08.2019 18:48 24,4 C 24,4 C 23,3 C 64 % 1015,8 hPa 0,0 l/m 0 min 0 min 160 W/m 6,4 km/h (2 Bft) 97,83 %
01.08.2019 18:50 24,4 C 25,0 C 23,3 C 65 % 1015,7 hPa 0,0 l/m 2 min 0 min 230 W/m 6,4 km/h (2 Bft) 97,87 %
01.08.2019 18:52 24,4 C 25,0 C 22,8 C 65 % 1015,8 hPa 0,0 l/m 2 min 0 min 183 W/m 6,4 km/h (2 Bft) 97,87 %
01.08.2019 18:54 24,4 C 23,9 C 22,8 C 65 % 1015,7 hPa 0,0 l/m 0 min 0 min 128 W/m 9,7 km/h (2 Bft) 97,87 %
01.08.2019 18:56 24,3 C 23,9 C 22,8 C 65 % 1015,7 hPa 0,0 l/m 0 min 0 min 107 W/m 6,4 km/h (2 Bft) 97,87 %
01.08.2019 18:58 24,3 C 23,3 C 22,8 C 65 % 1015,7 hPa 0,0 l/m 0 min 0 min 98 W/m 9,7 km/h (2 Bft) 100,00 %
01.08.2019 19:00 24,2 C 23,3 C 22,2 C 65 % 1015,7 hPa 0,0 l/m 0 min 0 min 90 W/m 6,4 km/h (2 Bft) 100,00 %
01.08.2019 19:02 24,2 C 23,3 C 22,2 C 65 % 1015,6 hPa 0,0 l/m 0 min 0 min 83 W/m 9,7 km/h (2 Bft) 100,00 %
01.08.2019 19:04 24,1 C 22,8 C 22,2 C 66 % 1015,7 hPa 0,0 l/m 0 min 0 min 68 W/m 6,4 km/h (2 Bft) 97,87 %
01.08.2019 19:06 24,1 C 22,8 C 22,2 C 65 % 1015,6 hPa 0,0 l/m 0 min 0 min 90 W/m 9,7 km/h (2 Bft) 100,00 %
01.08.2019 19:08 24,0 C 22,8 C 22,2 C 66 % 1015,7 hPa 0,0 l/m 0 min 0 min 95 W/m 6,4 km/h (2 Bft) 100,00 %
01.08.2019 19:10 23,9 C 22,8 C 22,2 C 66 % 1015,7 hPa 0,0 l/m 0 min 0 min 102 W/m 6,4 km/h (2 Bft) 100,00 %
01.08.2019 19:12 23,9 C 22,8 C 22,2 C 66 % 1015,7 hPa 0,0 l/m 0 min 0 min 111 W/m 6,4 km/h (2 Bft) 100,00 %
01.08.2019 19:14 23,8 C 22,8 C 22,2 C 66 % 1015,7 hPa 0,0 l/m 0 min 0 min 111 W/m 0,0 km/h (0 Bft) 95,74 %
01.08.2019 19:16 23,8 C 22,8 C 22,2 C 67 % 1015,7 hPa 0,0 l/m 0 min 0 min 113 W/m 6,4 km/h (2 Bft) 97,87 %
01.08.2019 19:18 23,7 C 22,8 C 22,2 C 67 % 1015,7 hPa 0,0 l/m 0 min 0 min 109 W/m 3,2 km/h (1 Bft) 97,87 %
01.08.2019 19:20 23,7 C 22,8 C 22,2 C 67 % 1015,7 hPa 0,0 l/m 0 min 0 min 101 W/m 6,4 km/h (2 Bft) 97,87 %
01.08.2019 19:22 23,6 C 22,8 C 22,2 C 67 % 1015,7 hPa 0,0 l/m 0 min 0 min 102 W/m 3,2 km/h (1 Bft) 95,74 %
01.08.2019 19:24 23,6 C 22,8 C 22,2 C 67 % 1015,7 hPa 0,0 l/m 0 min 0 min 104 W/m 12,9 km/h (3 Bft) 97,83 %
01.08.2019 19:26 23,5 C 22,8 C 22,2 C 67 % 1015,7 hPa 0,0 l/m 0 min 0 min 105 W/m 3,2 km/h (1 Bft) 95,74 %
01.08.2019 19:28 23,5 C 22,8 C 22,2 C 68 % 1015,7 hPa 0,0 l/m 0 min 0 min 103 W/m 3,2 km/h (1 Bft) 97,87 %
01.08.2019 19:30 23,4 C 22,8 C 22,2 C 68 % 1015,7 hPa 0,0 l/m 0 min 0 min 106 W/m 3,2 km/h (1 Bft) 91,49 %
01.08.2019 19:32 23,4 C 22,8 C 22,2 C 68 % 1015,7 hPa 0,0 l/m 0 min 0 min 117 W/m 6,4 km/h (2 Bft) 97,87 %
01.08.2019 19:34 23,4 C 22,8 C 22,2 C 68 % 1015,8 hPa 0,0 l/m 2 min 0 min 126 W/m 3,2 km/h (1 Bft) 95,65 %
01.08.2019 19:36 23,3 C 23,3 C 22,2 C 68 % 1015,8 hPa 0,0 l/m 2 min 0 min 129 W/m 6,4 km/h (2 Bft) 95,74 %
01.08.2019 19:38 23,3 C 23,3 C 22,2 C 68 % 1015,7 hPa 0,0 l/m 2 min 0 min 132 W/m 9,7 km/h (2 Bft) 95,74 %
01.08.2019 19:40 23,3 C 23,3 C 22,2 C 68 % 1015,8 hPa 0,0 l/m 2 min 0 min 129 W/m 9,7 km/h (2 Bft) 95,74 %
01.08.2019 19:42 23,3 C 23,3 C 22,2 C 68 % 1015,8 hPa 0,0 l/m 2 min 0 min 122 W/m 9,7 km/h (2 Bft) 93,62 %
01.08.2019 19:44 23,3 C 23,3 C 22,2 C 68 % 1015,8 hPa 0,0 l/m 2 min 0 min 114 W/m 9,7 km/h (2 Bft) 95,74 %
01.08.2019 19:46 23,3 C 23,3 C 22,2 C 67 % 1015,8 hPa 0,0 l/m 2 min 0 min 110 W/m 6,4 km/h (2 Bft) 95,65 %
01.08.2019 19:48 23,3 C 23,3 C 22,2 C 67 % 1015,8 hPa 0,0 l/m 2 min 0 min 108 W/m 3,2 km/h (1 Bft) 95,74 %
01.08.2019 19:50 23,3 C 22,8 C 22,2 C 66 % 1015,9 hPa 0,0 l/m 0 min 0 min 104 W/m 6,4 km/h (2 Bft) 93,62 %
01.08.2019 19:52 23,2 C 23,3 C 22,2 C 67 % 1015,9 hPa 0,0 l/m 0 min 0 min 97 W/m 3,2 km/h (1 Bft) 93,62 %
01.08.2019 19:53 23,2 C 22,8 C 22,2 C 67 % 1015,8 hPa 0,0 l/m 0 min 0 min 92 W/m 9,7 km/h (2 Bft) 95,74 %
01.08.2019 19:56 23,2 C 22,8 C 22,2 C 67 % 1015,8 hPa 0,0 l/m 0 min 0 min 87 W/m 6,4 km/h (2 Bft) 95,74 %
01.08.2019 19:58 23,2 C 22,8 C 22,2 C 66 % 1015,8 hPa 0,0 l/m 0 min 0 min 82 W/m 6,4 km/h (2 Bft) 95,65 %
01.08.2019 20:00 23,2 C 22,8 C 22,2 C 66 % 1015,8 hPa 0,0 l/m 0 min 0 min 74 W/m 9,7 km/h (2 Bft) 95,74 %
01.08.2019 20:02 23,2 C 22,8 C 22,2 C 66 % 1015,8 hPa 0,0 l/m 0 min 0 min 67 W/m 3,2 km/h (1 Bft) 93,62 %
01.08.2019 20:04 23,2 C 22,2 C 21,7 C 66 % 1015,8 hPa 0,0 l/m 0 min 0 min 63 W/m 9,7 km/h (2 Bft) 95,74 %
01.08.2019 20:06 23,2 C 22,2 C 21,7 C 65 % 1015,8 hPa 0,0 l/m 0 min 0 min 59 W/m 12,9 km/h (3 Bft) 95,74 %
01.08.2019 20:08 23,1 C 22,2 C 21,7 C 65 % 1015,9 hPa 0,0 l/m 0 min 0 min 57 W/m 6,4 km/h (2 Bft) 95,74 %
01.08.2019 20:10 23,1 C 22,2 C 21,7 C 66 % 1015,8 hPa 0,0 l/m 0 min 0 min 56 W/m 6,4 km/h (2 Bft) 95,65 %
01.08.2019 20:12 23,1 C 22,2 C 21,7 C 65 % 1015,8 hPa 0,0 l/m 0 min 0 min 55 W/m 0,0 km/h (0 Bft) 95,74 %
01.08.2019 20:14 23,0 C 22,2 C 21,7 C 65 % 1015,8 hPa 0,0 l/m 0 min 0 min 55 W/m 3,2 km/h (1 Bft) 95,74 %
01.08.2019 20:16 23,0 C 22,2 C 21,7 C 66 % 1015,9 hPa 0,0 l/m 0 min 0 min 56 W/m 0,0 km/h (0 Bft) 97,87 %
01.08.2019 20:18 23,0 C 22,2 C 21,7 C 66 % 1015,9 hPa 0,0 l/m 0 min 0 min 56 W/m 9,7 km/h (2 Bft) 95,74 %
01.08.2019 20:20 22,9 C 21,7 C 21,1 C 65 % 1015,8 hPa 0,0 l/m 0 min 0 min 54 W/m 3,2 km/h (1 Bft) 97,87 %
01.08.2019 20:22 22,9 C 21,7 C 21,1 C 65 % 1015,8 hPa 0,0 l/m 0 min 0 min 54 W/m 6,4 km/h (2 Bft) 97,83 %
01.08.2019 20:24 22,9 C 21,7 C 21,1 C 65 % 1015,8 hPa 0,0 l/m 0 min 0 min 54 W/m 3,2 km/h (1 Bft) 97,87 %
01.08.2019 20:26 22,9 C 21,7 C 21,1 C 65 % 1015,8 hPa 0,0 l/m 0 min 0 min 54 W/m 3,2 km/h (1 Bft) 100,00 %
01.08.2019 20:28 22,8 C 21,7 C 21,1 C 65 % 1015,8 hPa 0,0 l/m 0 min 0 min 53 W/m 6,4 km/h (2 Bft) 97,87 %
01.08.2019 20:30 22,8 C 21,7 C 21,1 C 65 % 1015,8 hPa 0,0 l/m 0 min 0 min 51 W/m 3,2 km/h (1 Bft) 100,00 %
01.08.2019 20:32 22,8 C 21,7 C 21,1 C 65 % 1015,9 hPa 0,0 l/m 0 min 0 min 51 W/m 9,7 km/h (2 Bft) 100,00 %
01.08.2019 20:34 22,8 C 21,7 C 21,1 C 65 % 1015,8 hPa 0,0 l/m 0 min 0 min 49 W/m 3,2 km/h (1 Bft) 100,00 %
01.08.2019 20:36 22,7 C 21,7 C 21,1 C 65 % 1015,9 hPa 0,0 l/m 0 min 0 min 44 W/m 3,2 km/h (1 Bft) 100,00 %
01.08.2019 20:38 22,7 C 21,7 C 21,1 C 66 % 1015,9 hPa 0,0 l/m 0 min 0 min 41 W/m 3,2 km/h (1 Bft) 95,74 %
01.08.2019 20:40 22,7 C 21,7 C 21,1 C 65 % 1015,9 hPa 0,0 l/m 0 min 0 min 39 W/m 3,2 km/h (1 Bft) 97,87 %
01.08.2019 20:42 22,7 C 21,1 C 21,1 C 66 % 1015,9 hPa 0,0 l/m 0 min 0 min 36 W/m 3,2 km/h (1 Bft) 100,00 %
01.08.2019 20:44 22,6 C 21,1 C 21,1 C 66 % 1015,9 hPa 0,0 l/m 0 min 0 min 33 W/m 3,2 km/h (1 Bft) 97,83 %
01.08.2019 20:46 22,6 C 21,1 C 21,1 C 66 % 1015,9 hPa 0,0 l/m 0 min 0 min 32 W/m 0,0 km/h (0 Bft) 97,87 %
01.08.2019 20:48 22,6 C 21,1 C 21,1 C 66 % 1015,9 hPa 0,0 l/m 0 min 0 min 29 W/m 9,7 km/h (2 Bft) 95,74 %
01.08.2019 20:50 22,6 C 21,1 C 21,1 C 66 % 1016,0 hPa 0,0 l/m 0 min 0 min 27 W/m 6,4 km/h (2 Bft) 97,87 %
01.08.2019 20:52 22,5 C 21,1 C 21,1 C 66 % 1016,0 hPa 0,0 l/m 0 min 0 min 26 W/m 6,4 km/h (2 Bft) 95,74 %
01.08.2019 20:54 22,4 C 21,1 C 20,6 C 66 % 1016,1 hPa 0,0 l/m 0 min 0 min 25 W/m 6,4 km/h (2 Bft) 95,74 %
01.08.2019 20:56 22,4 C 20,6 C 20,6 C 66 % 1016,0 hPa 0,0 l/m 2 min 0 min 23 W/m 6,4 km/h (2 Bft) 97,83 %
01.08.2019 20:58 22,4 C 20,6 C 20,6 C 66 % 1016,1 hPa 0,0 l/m 2 min 0 min 22 W/m 3,2 km/h (1 Bft) 95,74 %
01.08.2019 21:00 22,4 C 20,6 C 20,6 C 66 % 1016,1 hPa 0,0 l/m 2 min 0 min 20 W/m 3,2 km/h (1 Bft) 93,62 %
01.08.2019 21:02 22,3 C 20,6 C 20,6 C 66 % 1016,1 hPa 0,0 l/m 0 min 0 min 19 W/m 3,2 km/h (1 Bft) 97,87 %
01.08.2019 21:04 22,3 C 20,6 C 20,6 C 66 % 1016,1 hPa 0,0 l/m 0 min 0 min 17 W/m 0,0 km/h (0 Bft) 95,74 %
01.08.2019 21:06 22,3 C 20,6 C 20,6 C 67 % 1016,1 hPa 0,0 l/m 0 min 0 min 15 W/m 0,0 km/h (0 Bft) 95,74 %
01.08.2019 21:08 22,2 C 20,0 C 20,0 C 67 % 1016,1 hPa 0,0 l/m 0 min 0 min 12 W/m 0,0 km/h (0 Bft) 95,65 %
01.08.2019 21:10 22,2 C 20,0 C 20,0 C 67 % 1016,1 hPa 0,0 l/m 0 min 0 min 11 W/m 0,0 km/h (0 Bft) 97,87 %
01.08.2019 21:12 22,2 C 20,0 C 20,0 C 67 % 1016,1 hPa 0,0 l/m 0 min 0 min 10 W/m 0,0 km/h (0 Bft) 95,74 %
01.08.2019 21:14 22,1 C 20,0 C 20,0 C 67 % 1016,1 hPa 0,0 l/m 0 min 0 min 9 W/m 0,0 km/h (0 Bft) 97,87 %
01.08.2019 21:16 22,1 C 19,4 C 19,4 C 67 % 1016,2 hPa 0,0 l/m 0 min 0 min 7 W/m 0,0 km/h (0 Bft) 97,87 %
01.08.2019 21:18 22,1 C 19,4 C 19,4 C 68 % 1016,2 hPa 0,0 l/m 0 min 0 min 6 W/m 0,0 km/h (0 Bft) 97,87 %
01.08.2019 21:20 22,0 C 19,4 C 19,4 C 68 % 1016,2 hPa 0,0 l/m 0 min 0 min 5 W/m 0,0 km/h (0 Bft) 97,83 %
01.08.2019 21:22 22,0 C 19,4 C 19,4 C 68 % 1016,2 hPa 0,0 l/m 0 min 0 min 4 W/m 0,0 km/h (0 Bft) 95,74 %
01.08.2019 21:24 21,9 C 19,4 C 18,9 C 68 % 1016,2 hPa 0,0 l/m 0 min 0 min 0 W/m 0,0 km/h (0 Bft) 97,87 %
01.08.2019 21:26 21,9 C 18,9 C 18,9 C 68 % 1016,3 hPa 0,0 l/m 0 min 0 min 0 W/m 0,0 km/h (0 Bft) 97,87 %
01.08.2019 21:28 21,8 C 18,9 C 18,9 C 68 % 1016,3 hPa 0,0 l/m 0 min 0 min 0 W/m 0,0 km/h (0 Bft) 93,62 %
01.08.2019 21:30 21,8 C 18,9 C 18,9 C 68 % 1016,3 hPa 0,0 l/m 0 min 0 min 0 W/m 0,0 km/h (0 Bft) 97,87 %
01.08.2019 21:32 21,8 C 18,9 C 18,3 C 68 % 1016,3 hPa 0,0 l/m 0 min 0 min 0 W/m 0,0 km/h (0 Bft) 100,00 %
01.08.2019 21:34 21,7 C 18,9 C 18,3 C 68 % 1016,3 hPa 0,0 l/m 0 min 0 min 0 W/m 0,0 km/h (0 Bft) 100,00 %
01.08.2019 21:36 21,7 C 18,9 C 18,3 C 68 % 1016,3 hPa 0,0 l/m 0 min 0 min 0 W/m 0,0 km/h (0 Bft) 97,87 %
01.08.2019 21:38 21,6 C 18,9 C 18,3 C 69 % 1016,3 hPa 0,0 l/m 0 min 0 min 0 W/m 0,0 km/h (0 Bft) 100,00 %
01.08.2019 21:40 21,5 C 18,3 C 18,3 C 69 % 1016,4 hPa 0,0 l/m 0 min 0 min 0 W/m 0,0 km/h (0 Bft) 100,00 %
01.08.2019 21:42 21,4 C 18,3 C 17,8 C 69 % 1016,4 hPa 0,0 l/m 0 min 0 min 0 W/m 0,0 km/h (0 Bft) 100,00 %
01.08.2019 21:44 21,4 C 18,3 C 17,8 C 70 % 1016,3 hPa 0,0 l/m 0 min 0 min 0 W/m 0,0 km/h (0 Bft) 100,00 %
01.08.2019 21:46 21,3 C 18,3 C 17,8 C 70 % 1016,3 hPa 0,0 l/m 0 min 0 min 0 W/m 0,0 km/h (0 Bft) 97,87 %
01.08.2019 21:48 21,2 C 18,3 C 17,8 C 70 % 1016,3 hPa 0,0 l/m 0 min 0 min 0 W/m 0,0 km/h (0 Bft) 100,00 %
01.08.2019 21:50 21,2 C 17,8 C 17,8 C 70 % 1016,4 hPa 0,0 l/m 0 min 0 min 0 W/m 0,0 km/h (0 Bft) 100,00 %
01.08.2019 21:52 21,1 C 17,8 C 17,8 C 71 % 1016,4 hPa 0,0 l/m 0 min 0 min 0 W/m 0,0 km/h (0 Bft) 100,00 %
01.08.2019 21:54 21,0 C 17,8 C 17,2 C 71 % 1016,4 hPa 0,0 l/m 0 min 0 min 0 W/m 0,0 km/h (0 Bft) 100,00 %
01.08.2019 21:56 20,9 C 17,8 C 17,2 C 71 % 1016,3 hPa 0,0 l/m 0 min 0 min 0 W/m 0,0 km/h (0 Bft) 100,00 %
01.08.2019 21:58 20,9 C 17,8 C 17,2 C 71 % 1016,4 hPa 0,0 l/m 0 min 0 min 0 W/m 0,0 km/h (0 Bft) 100,00 %
01.08.2019 22:00 20,8 C 17,8 C 17,2 C 72 % 1016,4 hPa 0,0 l/m 0 min 0 min 0 W/m 0,0 km/h (0 Bft) 100,00 %
01.08.2019 22:02 20,7 C 17,8 C 17,2 C 71 % 1016,4 hPa 0,0 l/m 0 min 0 min 0 W/m 0,0 km/h (0 Bft) 97,87 %
01.08.2019 22:04 20,7 C 17,8 C 17,2 C 72 % 1016,4 hPa 0,0 l/m 0 min 0 min 0 W/m 0,0 km/h (0 Bft) 100,00 %
01.08.2019 22:06 20,6 C 17,8 C 17,2 C 72 % 1016,4 hPa 0,0 l/m 0 min 0 min 0 W/m 0,0 km/h (0 Bft) 100,00 %
01.08.2019 22:08 20,6 C 17,8 C 17,2 C 72 % 1016,4 hPa 0,0 l/m 0 min 0 min 0 W/m 0,0 km/h (0 Bft) 97,87 %
01.08.2019 22:10 20,5 C 18,3 C 17,2 C 72 % 1016,4 hPa 0,0 l/m 0 min 0 min 0 W/m 0,0 km/h (0 Bft) 97,87 %
01.08.2019 22:12 20,4 C 18,3 C 17,2 C 72 % 1016,4 hPa 0,0 l/m 0 min 0 min 0 W/m 0,0 km/h (0 Bft) 95,74 %
01.08.2019 22:14 20,4 C 17,8 C 17,2 C 72 % 1016,4 hPa 0,0 l/m 0 min 0 min 0 W/m 0,0 km/h (0 Bft) 100,00 %
01.08.2019 22:16 20,3 C 17,8 C 17,2 C 72 % 1016,4 hPa 0,0 l/m 0 min 0 min 0 W/m 0,0 km/h (0 Bft) 97,87 %
01.08.2019 22:18 20,3 C 17,8 C 17,2 C 72 % 1016,5 hPa 0,0 l/m 0 min 0 min 0 W/m 0,0 km/h (0 Bft) 97,83 %
01.08.2019 22:20 20,2 C 17,8 C 17,2 C 73 % 1016,5 hPa 0,0 l/m 0 min 0 min 0 W/m 0,0 km/h (0 Bft) 97,87 %
01.08.2019 22:22 20,2 C 17,2 C 16,7 C 73 % 1016,5 hPa 0,0 l/m 0 min 0 min 0 W/m 0,0 km/h (0 Bft) 97,87 %
01.08.2019 22:24 20,1 C 17,2 C 16,7 C 73 % 1016,5 hPa 0,0 l/m 0 min 0 min 0 W/m 0,0 km/h (0 Bft) 97,87 %
01.08.2019 22:26 20,1 C 17,2 C 16,7 C 74 % 1016,5 hPa 0,0 l/m 0 min 0 min 0 W/m 0,0 km/h (0 Bft) 97,87 %
01.08.2019 22:28 20,0 C 17,2 C 16,7 C 74 % 1016,4 hPa 0,0 l/m 0 min 0 min 0 W/m 0,0 km/h (0 Bft) 97,87 %
01.08.2019 22:30 19,9 C 17,8 C 16,7 C 74 % 1016,5 hPa 0,0 l/m 0 min 0 min 0 W/m 0,0 km/h (0 Bft) 97,83 %
01.08.2019 22:32 19,9 C 17,8 C 16,7 C 74 % 1016,5 hPa 0,0 l/m 0 min 0 min 0 W/m 0,0 km/h (0 Bft) 97,87 %
01.08.2019 22:34 19,9 C 17,8 C 16,7 C 74 % 1016,5 hPa 0,0 l/m 0 min 0 min 0 W/m 0,0 km/h (0 Bft) 97,87 %
01.08.2019 22:36 19,8 C 17,2 C 16,7 C 74 % 1016,5 hPa 0,0 l/m 0 min 0 min 0 W/m 0,0 km/h (0 Bft) 97,87 %
01.08.2019 22:38 19,8 C 17,2 C 16,7 C 74 % 1016,5 hPa 0,0 l/m 0 min 0 min 0 W/m 0,0 km/h (0 Bft) 97,87 %
01.08.2019 22:40 19,7 C 17,2 C 16,7 C 75 % 1016,5 hPa 0,0 l/m 0 min 0 min 0 W/m 0,0 km/h (0 Bft) 97,87 %
01.08.2019 22:42 19,7 C 17,2 C 16,7 C 75 % 1016,5 hPa 0,0 l/m 0 min 0 min 0 W/m 0,0 km/h (0 Bft) 95,65 %
01.08.2019 22:44 19,6 C 17,2 C 16,7 C 75 % 1016,5 hPa 0,0 l/m 0 min 0 min 0 W/m 0,0 km/h (0 Bft) 97,87 %
01.08.2019 22:46 19,6 C 17,2 C 16,7 C 75 % 1016,5 hPa 0,0 l/m 0 min 0 min 0 W/m 0,0 km/h (0 Bft) 97,87 %
01.08.2019 22:48 19,5 C 17,2 C 16,7 C 75 % 1016,6 hPa 0,0 l/m 0 min 0 min 0 W/m 0,0 km/h (0 Bft) 95,74 %
01.08.2019 22:50 19,4 C 17,2 C 16,7 C 75 % 1016,6 hPa 0,0 l/m 0 min 0 min 0 W/m 0,0 km/h (0 Bft) 97,87 %
01.08.2019 22:52 19,4 C 17,2 C 16,7 C 75 % 1016,6 hPa 0,0 l/m 0 min 0 min 0 W/m 0,0 km/h (0 Bft) 97,83 %
01.08.2019 22:54 19,4 C 17,2 C 16,7 C 75 % 1016,5 hPa 0,0 l/m 0 min 0 min 0 W/m 0,0 km/h (0 Bft) 97,87 %
01.08.2019 22:56 19,3 C 17,2 C 16,7 C 75 % 1016,6 hPa 0,0 l/m 0 min 0 min 0 W/m 0,0 km/h (0 Bft) 97,87 %
01.08.2019 22:58 19,3 C 17,2 C 16,7 C 75 % 1016,5 hPa 0,0 l/m 0 min 0 min 0 W/m 0,0 km/h (0 Bft) 97,87 %
01.08.2019 23:00 19,3 C 16,7 C 16,1 C 76 % 1016,6 hPa 0,0 l/m 0 min 0 min 0 W/m 0,0 km/h (0 Bft) 100,00 %
01.08.2019 23:02 19,2 C 16,7 C 16,1 C 76 % 1016,6 hPa 0,0 l/m 0 min 0 min 0 W/m 0,0 km/h (0 Bft) 97,87 %
01.08.2019 23:04 19,2 C 16,7 C 16,1 C 77 % 1016,6 hPa 0,0 l/m 0 min 0 min 0 W/m 0,0 km/h (0 Bft) 97,83 %
01.08.2019 23:06 19,2 C 16,7 C 16,1 C 77 % 1016,6 hPa 0,0 l/m 0 min 0 min 0 W/m 0,0 km/h (0 Bft) 97,87 %
01.08.2019 23:08 19,1 C 16,7 C 16,1 C 77 % 1016,6 hPa 0,0 l/m 0 min 0 min 0 W/m 0,0 km/h (0 Bft) 97,87 %
01.08.2019 23:10 19,1 C 16,7 C 16,1 C 77 % 1016,7 hPa 0,0 l/m 0 min 0 min 0 W/m 0,0 km/h (0 Bft) 97,87 %
01.08.2019 23:12 19,0 C 16,1 C 16,1 C 77 % 1016,7 hPa 0,0 l/m 0 min 0 min 0 W/m 0,0 km/h (0 Bft) 97,87 %
01.08.2019 23:14 19,0 C 16,1 C 16,1 C 77 % 1016,6 hPa 0,0 l/m 0 min 0 min 0 W/m 0,0 km/h (0 Bft) 95,74 %
01.08.2019 23:16 18,9 C 16,1 C 16,1 C 78 % 1016,6 hPa 0,0 l/m 0 min 0 min 0 W/m 0,0 km/h (0 Bft) 97,83 %
01.08.2019 23:18 18,9 C 16,1 C 15,6 C 78 % 1016,6 hPa 0,0 l/m 0 min 0 min 0 W/m 0,0 km/h (0 Bft) 97,87 %
01.08.2019 23:20 18,8 C 16,1 C 15,6 C 78 % 1016,6 hPa 0,0 l/m 0 min 0 min 0 W/m 0,0 km/h (0 Bft) 97,87 %
01.08.2019 23:22 18,8 C 16,1 C 15,6 C 78 % 1016,6 hPa 0,0 l/m 0 min 0 min 0 W/m 0,0 km/h (0 Bft) 97,87 %
01.08.2019 23:24 18,7 C 16,1 C 15,6 C 78 % 1016,6 hPa 0,0 l/m 0 min 0 min 0 W/m 0,0 km/h (0 Bft) 97,87 %
01.08.2019 23:26 18,7 C 16,1 C 15,6 C 79 % 1016,6 hPa 0,0 l/m 0 min 0 min 0 W/m 0,0 km/h (0 Bft) 97,87 %
01.08.2019 23:28 18,6 C 16,1 C 15,6 C 79 % 1016,6 hPa 0,0 l/m 0 min 0 min 0 W/m 0,0 km/h (0 Bft) 97,83 %
01.08.2019 23:30 18,6 C 16,1 C 15,6 C 79 % 1016,6 hPa 0,0 l/m 0 min 0 min 0 W/m 0,0 km/h (0 Bft) 97,87 %
01.08.2019 23:32 18,6 C 16,1 C 15,6 C 79 % 1016,6 hPa 0,0 l/m 0 min 0 min 0 W/m 0,0 km/h (0 Bft) 97,87 %
01.08.2019 23:34 18,5 C 15,6 C 15,6 C 79 % 1016,6 hPa 0,0 l/m 0 min 0 min 0 W/m 0,0 km/h (0 Bft) 97,87 %
01.08.2019 23:36 18,4 C 15,6 C 15,6 C 79 % 1016,5 hPa 0,0 l/m 0 min 0 min 0 W/m 0,0 km/h (0 Bft) 97,87 %
01.08.2019 23:38 18,4 C 15,6 C 15,6 C 79 % 1016,6 hPa 0,0 l/m 0 min 0 min 0 W/m 0,0 km/h (0 Bft) 93,62 %
01.08.2019 23:40 18,3 C 15,6 C 15,6 C 79 % 1016,5 hPa 0,0 l/m 0 min 0 min 0 W/m 0,0 km/h (0 Bft) 95,65 %
01.08.2019 23:42 18,3 C 15,6 C 15,6 C 80 % 1016,6 hPa 0,0 l/m 0 min 0 min 0 W/m 0,0 km/h (0 Bft) 95,74 %
01.08.2019 23:44 18,3 C 15,6 C 15,6 C 79 % 1016,6 hPa 0,0 l/m 0 min 0 min 0 W/m 0,0 km/h (0 Bft) 93,62 %
01.08.2019 23:46 18,2 C 15,6 C 15,0 C 80 % 1016,5 hPa 0,0 l/m 0 min 0 min 0 W/m 0,0 km/h (0 Bft) 95,74 %
01.08.2019 23:48 18,2 C 15,6 C 15,0 C 80 % 1016,6 hPa 0,0 l/m 0 min 0 min 0 W/m 0,0 km/h (0 Bft) 93,62 %
01.08.2019 23:50 18,1 C 15,6 C 15,0 C 80 % 1016,6 hPa 0,0 l/m 0 min 0 min 0 W/m 0,0 km/h (0 Bft) 93,62 %
01.08.2019 23:52 18,1 C 15,6 C 15,0 C 80 % 1016,6 hPa 0,0 l/m 0 min 0 min 0 W/m 0,0 km/h (0 Bft) 95,65 %
01.08.2019 23:54 18,1 C 15,6 C 15,0 C 80 % 1016,6 hPa 0,0 l/m 0 min 0 min 0 W/m 0,0 km/h (0 Bft) 95,74 %
01.08.2019 23:56 18,0 C 15,6 C 15,0 C 80 % 1016,6 hPa 0,0 l/m 0 min 0 min 0 W/m 0,0 km/h (0 Bft) 93,62 %
01.08.2019 23:58 17,9 C 15,0 C 15,0 C 80 % 1016,6 hPa 0,0 l/m 0 min 0 min 0 W/m 0,0 km/h (0 Bft) 93,62 %
_ Min-Zeit 06:38 06:00 05:42 16:32 18:22 - - - - 01:20 04:05
Minimum _ 15,1 C 13,9 C 13,9 C 50 % 1015,6 hPa - - - - 0,0 km/h (0 Bft) 90,00 %
_ Max-Zeit 16:32 15:36 14:18 06:48 01:08 00:00 12:08 17:30 14:26 10:18 00:30
Maximum _ 26,8 C 32,2 C 30,6 C 85 % 1017,7 hPa 0,0 l/m 4 min 2 min 1062 W/m 38,6 km/h
SO (5 Bft)
100,00 %
Durchschnitt _ 20,6 C 20,8 C 20,2 C 70 % 1016,8 hPa #0,0 l/m #6:16 h #4 min. 309 W/m 8,2 km/h (2 Bft) 97,52 %
© 2019 W. Hausmann